<?xml version="1.0" encoding="UTF-8" standalone="no" ?>
<gpx xmlns="http://www.topografix.com/GPX/1/1" xmlns:xsi="http://www.w3.org/2001/XMLSchema-instance" xsi:schemaLocation="http://www.topografix.com/GPX/1/1 http://www.topografix.com/GPX/1/1/gpx.xsd" version="1.1" creator="VisuGPX - https://www.visugpx.com">
  <metadata>
    <name>puntussan 30 janvier 22</name>
    <desc><![CDATA[grp_trc:]]></desc>
  </metadata>
  <trk>
    <name><![CDATA[puntussan 30 janvier 22]]></name>
    <cmt><![CDATA[08:54:19]]></cmt>
    <desc><![CDATA[comment ...]]></desc>
    <trkseg>
      <trkpt lat="42.71039" lon="1.42526">
        <ele>1178</ele>
        <time>2022-01-30T07:54:21Z</time>
      </trkpt>
      <trkpt lat="42.71039" lon="1.42526">
        <ele>1178</ele>
        <time>2022-01-30T07:54:22Z</time>
      </trkpt>
      <trkpt lat="42.71045" lon="1.42487">
        <ele>1175</ele>
        <time>2022-01-30T08:07:12Z</time>
      </trkpt>
      <trkpt lat="42.71063" lon="1.42455">
        <ele>1176</ele>
        <time>2022-01-30T08:08:28Z</time>
      </trkpt>
      <trkpt lat="42.71051" lon="1.4242">
        <ele>1194</ele>
        <time>2022-01-30T08:09:16Z</time>
      </trkpt>
      <trkpt lat="42.71043" lon="1.42381">
        <ele>1196</ele>
        <time>2022-01-30T08:09:42Z</time>
      </trkpt>
      <trkpt lat="42.71038" lon="1.42343">
        <ele>1199</ele>
        <time>2022-01-30T08:10:10Z</time>
      </trkpt>
      <trkpt lat="42.7102" lon="1.42312">
        <ele>1199</ele>
        <time>2022-01-30T08:10:50Z</time>
      </trkpt>
      <trkpt lat="42.71006" lon="1.42278">
        <ele>1203</ele>
        <time>2022-01-30T08:11:34Z</time>
      </trkpt>
      <trkpt lat="42.71006" lon="1.42239">
        <ele>1205</ele>
        <time>2022-01-30T08:12:17Z</time>
      </trkpt>
      <trkpt lat="42.71016" lon="1.42201">
        <ele>1215</ele>
        <time>2022-01-30T08:13:14Z</time>
      </trkpt>
      <trkpt lat="42.71022" lon="1.42163">
        <ele>1220</ele>
        <time>2022-01-30T08:14:20Z</time>
      </trkpt>
      <trkpt lat="42.71034" lon="1.42127">
        <ele>1238</ele>
        <time>2022-01-30T08:15:18Z</time>
      </trkpt>
      <trkpt lat="42.71033" lon="1.42088">
        <ele>1244</ele>
        <time>2022-01-30T08:16:20Z</time>
      </trkpt>
      <trkpt lat="42.71044" lon="1.42051">
        <ele>1260</ele>
        <time>2022-01-30T08:17:08Z</time>
      </trkpt>
      <trkpt lat="42.71051" lon="1.42013">
        <ele>1266</ele>
        <time>2022-01-30T08:18:01Z</time>
      </trkpt>
      <trkpt lat="42.71062" lon="1.41977">
        <ele>1279</ele>
        <time>2022-01-30T08:18:45Z</time>
      </trkpt>
      <trkpt lat="42.71068" lon="1.41937">
        <ele>1284</ele>
        <time>2022-01-30T08:19:35Z</time>
      </trkpt>
      <trkpt lat="42.71075" lon="1.41899">
        <ele>1294</ele>
        <time>2022-01-30T08:20:31Z</time>
      </trkpt>
      <trkpt lat="42.71092" lon="1.41866">
        <ele>1301</ele>
        <time>2022-01-30T08:21:41Z</time>
      </trkpt>
      <trkpt lat="42.71104" lon="1.4183">
        <ele>1321</ele>
        <time>2022-01-30T08:22:32Z</time>
      </trkpt>
      <trkpt lat="42.71114" lon="1.41793">
        <ele>1329</ele>
        <time>2022-01-30T08:23:29Z</time>
      </trkpt>
      <trkpt lat="42.7112" lon="1.41755">
        <ele>1344</ele>
        <time>2022-01-30T08:24:13Z</time>
      </trkpt>
      <trkpt lat="42.71128" lon="1.41737">
        <ele>1349</ele>
        <time>2022-01-30T08:24:41Z</time>
      </trkpt>
      <trkpt lat="42.71137" lon="1.41722">
        <ele>1350</ele>
        <time>2022-01-30T08:25:00Z</time>
      </trkpt>
      <trkpt lat="42.71143" lon="1.41703">
        <ele>1354</ele>
        <time>2022-01-30T08:25:22Z</time>
      </trkpt>
      <trkpt lat="42.71145" lon="1.41684">
        <ele>1355</ele>
        <time>2022-01-30T08:25:36Z</time>
      </trkpt>
      <trkpt lat="42.71146" lon="1.41664">
        <ele>1357</ele>
        <time>2022-01-30T08:25:56Z</time>
      </trkpt>
      <trkpt lat="42.71147" lon="1.41644">
        <ele>1358</ele>
        <time>2022-01-30T08:26:11Z</time>
      </trkpt>
      <trkpt lat="42.71145" lon="1.41624">
        <ele>1361</ele>
        <time>2022-01-30T08:26:27Z</time>
      </trkpt>
      <trkpt lat="42.71149" lon="1.41605">
        <ele>1362</ele>
        <time>2022-01-30T08:26:47Z</time>
      </trkpt>
      <trkpt lat="42.71155" lon="1.41587">
        <ele>1365</ele>
        <time>2022-01-30T08:27:06Z</time>
      </trkpt>
      <trkpt lat="42.71156" lon="1.41566">
        <ele>1368</ele>
        <time>2022-01-30T08:27:34Z</time>
      </trkpt>
      <trkpt lat="42.7115" lon="1.41548">
        <ele>1374</ele>
        <time>2022-01-30T08:27:45Z</time>
      </trkpt>
      <trkpt lat="42.71152" lon="1.41528">
        <ele>1376</ele>
        <time>2022-01-30T08:28:03Z</time>
      </trkpt>
      <trkpt lat="42.7115" lon="1.41508">
        <ele>1384</ele>
        <time>2022-01-30T08:28:26Z</time>
      </trkpt>
      <trkpt lat="42.71149" lon="1.41488">
        <ele>1387</ele>
        <time>2022-01-30T08:28:43Z</time>
      </trkpt>
      <trkpt lat="42.71151" lon="1.41469">
        <ele>1391</ele>
        <time>2022-01-30T08:28:57Z</time>
      </trkpt>
      <trkpt lat="42.71162" lon="1.41431">
        <ele>1392</ele>
        <time>2022-01-30T08:29:30Z</time>
      </trkpt>
      <trkpt lat="42.71168" lon="1.41412">
        <ele>1393</ele>
        <time>2022-01-30T08:29:50Z</time>
      </trkpt>
      <trkpt lat="42.71166" lon="1.41393">
        <ele>1393</ele>
        <time>2022-01-30T08:30:03Z</time>
      </trkpt>
      <trkpt lat="42.71171" lon="1.41374">
        <ele>1393</ele>
        <time>2022-01-30T08:30:17Z</time>
      </trkpt>
      <trkpt lat="42.71174" lon="1.41355">
        <ele>1393</ele>
        <time>2022-01-30T08:30:33Z</time>
      </trkpt>
      <trkpt lat="42.71175" lon="1.41335">
        <ele>1393</ele>
        <time>2022-01-30T08:30:48Z</time>
      </trkpt>
      <trkpt lat="42.71179" lon="1.41315">
        <ele>1396</ele>
        <time>2022-01-30T08:31:05Z</time>
      </trkpt>
      <trkpt lat="42.71196" lon="1.4126">
        <ele>1397</ele>
        <time>2022-01-30T08:31:47Z</time>
      </trkpt>
      <trkpt lat="42.71208" lon="1.41248">
        <ele>1397</ele>
        <time>2022-01-30T08:32:05Z</time>
      </trkpt>
      <trkpt lat="42.71221" lon="1.41236">
        <ele>1399</ele>
        <time>2022-01-30T08:32:19Z</time>
      </trkpt>
      <trkpt lat="42.71231" lon="1.41223">
        <ele>1404</ele>
        <time>2022-01-30T08:32:35Z</time>
      </trkpt>
      <trkpt lat="42.71243" lon="1.4121">
        <ele>1406</ele>
        <time>2022-01-30T08:32:54Z</time>
      </trkpt>
      <trkpt lat="42.71255" lon="1.41199">
        <ele>1409</ele>
        <time>2022-01-30T08:33:05Z</time>
      </trkpt>
      <trkpt lat="42.71265" lon="1.41184">
        <ele>1410</ele>
        <time>2022-01-30T08:33:29Z</time>
      </trkpt>
      <trkpt lat="42.71253" lon="1.41172">
        <ele>1411</ele>
        <time>2022-01-30T08:34:09Z</time>
      </trkpt>
      <trkpt lat="42.71246" lon="1.41156">
        <ele>1416</ele>
        <time>2022-01-30T08:34:22Z</time>
      </trkpt>
      <trkpt lat="42.71243" lon="1.41135">
        <ele>1417</ele>
        <time>2022-01-30T08:34:34Z</time>
      </trkpt>
      <trkpt lat="42.71241" lon="1.41115">
        <ele>1418</ele>
        <time>2022-01-30T08:34:50Z</time>
      </trkpt>
      <trkpt lat="42.71242" lon="1.41095">
        <ele>1417</ele>
        <time>2022-01-30T08:35:06Z</time>
      </trkpt>
      <trkpt lat="42.71242" lon="1.41075">
        <ele>1417</ele>
        <time>2022-01-30T08:35:19Z</time>
      </trkpt>
      <trkpt lat="42.7124" lon="1.41055">
        <ele>1416</ele>
        <time>2022-01-30T08:35:32Z</time>
      </trkpt>
      <trkpt lat="42.71245" lon="1.41036">
        <ele>1416</ele>
        <time>2022-01-30T08:35:51Z</time>
      </trkpt>
      <trkpt lat="42.7125" lon="1.41016">
        <ele>1417</ele>
        <time>2022-01-30T08:36:11Z</time>
      </trkpt>
      <trkpt lat="42.71247" lon="1.40997">
        <ele>1422</ele>
        <time>2022-01-30T08:36:47Z</time>
      </trkpt>
      <trkpt lat="42.71244" lon="1.40978">
        <ele>1424</ele>
        <time>2022-01-30T08:37:07Z</time>
      </trkpt>
      <trkpt lat="42.7124" lon="1.40959">
        <ele>1427</ele>
        <time>2022-01-30T08:37:25Z</time>
      </trkpt>
      <trkpt lat="42.71234" lon="1.40942">
        <ele>1428</ele>
        <time>2022-01-30T08:37:41Z</time>
      </trkpt>
      <trkpt lat="42.71228" lon="1.40922">
        <ele>1430</ele>
        <time>2022-01-30T08:37:54Z</time>
      </trkpt>
      <trkpt lat="42.71218" lon="1.40885">
        <ele>1431</ele>
        <time>2022-01-30T08:38:23Z</time>
      </trkpt>
      <trkpt lat="42.7121" lon="1.40869">
        <ele>1430</ele>
        <time>2022-01-30T08:38:40Z</time>
      </trkpt>
      <trkpt lat="42.71201" lon="1.40853">
        <ele>1430</ele>
        <time>2022-01-30T08:38:56Z</time>
      </trkpt>
      <trkpt lat="42.71191" lon="1.40838">
        <ele>1432</ele>
        <time>2022-01-30T08:39:14Z</time>
      </trkpt>
      <trkpt lat="42.71184" lon="1.4082">
        <ele>1436</ele>
        <time>2022-01-30T08:39:30Z</time>
      </trkpt>
      <trkpt lat="42.71174" lon="1.40805">
        <ele>1437</ele>
        <time>2022-01-30T08:39:45Z</time>
      </trkpt>
      <trkpt lat="42.71167" lon="1.40788">
        <ele>1438</ele>
        <time>2022-01-30T08:40:00Z</time>
      </trkpt>
      <trkpt lat="42.71151" lon="1.40753">
        <ele>1437</ele>
        <time>2022-01-30T08:40:37Z</time>
      </trkpt>
      <trkpt lat="42.71144" lon="1.40736">
        <ele>1437</ele>
        <time>2022-01-30T08:40:51Z</time>
      </trkpt>
      <trkpt lat="42.71134" lon="1.40696">
        <ele>1433</ele>
        <time>2022-01-30T08:41:26Z</time>
      </trkpt>
      <trkpt lat="42.7113" lon="1.40677">
        <ele>1432</ele>
        <time>2022-01-30T08:41:43Z</time>
      </trkpt>
      <trkpt lat="42.71126" lon="1.40658">
        <ele>1432</ele>
        <time>2022-01-30T08:41:56Z</time>
      </trkpt>
      <trkpt lat="42.71121" lon="1.4064">
        <ele>1431</ele>
        <time>2022-01-30T08:42:14Z</time>
      </trkpt>
      <trkpt lat="42.71123" lon="1.40619">
        <ele>1431</ele>
        <time>2022-01-30T08:42:28Z</time>
      </trkpt>
      <trkpt lat="42.71123" lon="1.40598">
        <ele>1430</ele>
        <time>2022-01-30T08:42:43Z</time>
      </trkpt>
      <trkpt lat="42.71119" lon="1.40578">
        <ele>1430</ele>
        <time>2022-01-30T08:42:59Z</time>
      </trkpt>
      <trkpt lat="42.71119" lon="1.40557">
        <ele>1430</ele>
        <time>2022-01-30T08:43:13Z</time>
      </trkpt>
      <trkpt lat="42.71118" lon="1.40517">
        <ele>1429</ele>
        <time>2022-01-30T08:43:49Z</time>
      </trkpt>
      <trkpt lat="42.71121" lon="1.40497">
        <ele>1429</ele>
        <time>2022-01-30T08:44:02Z</time>
      </trkpt>
      <trkpt lat="42.71123" lon="1.40477">
        <ele>1428</ele>
        <time>2022-01-30T08:44:18Z</time>
      </trkpt>
      <trkpt lat="42.71131" lon="1.40459">
        <ele>1427</ele>
        <time>2022-01-30T08:44:32Z</time>
      </trkpt>
      <trkpt lat="42.71135" lon="1.4044">
        <ele>1425</ele>
        <time>2022-01-30T08:44:47Z</time>
      </trkpt>
      <trkpt lat="42.7114" lon="1.40421">
        <ele>1424</ele>
        <time>2022-01-30T08:45:04Z</time>
      </trkpt>
      <trkpt lat="42.71147" lon="1.40403">
        <ele>1420</ele>
        <time>2022-01-30T08:45:21Z</time>
      </trkpt>
      <trkpt lat="42.71149" lon="1.40382">
        <ele>1417</ele>
        <time>2022-01-30T08:45:52Z</time>
      </trkpt>
      <trkpt lat="42.71171" lon="1.40354">
        <ele>1409</ele>
        <time>2022-01-30T08:46:26Z</time>
      </trkpt>
      <trkpt lat="42.71181" lon="1.4034">
        <ele>1405</ele>
        <time>2022-01-30T08:46:45Z</time>
      </trkpt>
      <trkpt lat="42.71193" lon="1.40328">
        <ele>1404</ele>
        <time>2022-01-30T08:47:00Z</time>
      </trkpt>
      <trkpt lat="42.71207" lon="1.4032">
        <ele>1403</ele>
        <time>2022-01-30T08:47:15Z</time>
      </trkpt>
      <trkpt lat="42.71218" lon="1.40308">
        <ele>1402</ele>
        <time>2022-01-30T08:47:29Z</time>
      </trkpt>
      <trkpt lat="42.7123" lon="1.40296">
        <ele>1399</ele>
        <time>2022-01-30T08:47:47Z</time>
      </trkpt>
      <trkpt lat="42.71243" lon="1.40287">
        <ele>1398</ele>
        <time>2022-01-30T08:48:02Z</time>
      </trkpt>
      <trkpt lat="42.71255" lon="1.40276">
        <ele>1400</ele>
        <time>2022-01-30T08:48:26Z</time>
      </trkpt>
      <trkpt lat="42.71269" lon="1.40269">
        <ele>1401</ele>
        <time>2022-01-30T08:48:39Z</time>
      </trkpt>
      <trkpt lat="42.71282" lon="1.4026">
        <ele>1403</ele>
        <time>2022-01-30T08:49:00Z</time>
      </trkpt>
      <trkpt lat="42.71297" lon="1.40256">
        <ele>1405</ele>
        <time>2022-01-30T08:49:17Z</time>
      </trkpt>
      <trkpt lat="42.71311" lon="1.40251">
        <ele>1412</ele>
        <time>2022-01-30T08:49:44Z</time>
      </trkpt>
      <trkpt lat="42.71326" lon="1.40245">
        <ele>1416</ele>
        <time>2022-01-30T08:50:09Z</time>
      </trkpt>
      <trkpt lat="42.7134" lon="1.40243">
        <ele>1418</ele>
        <time>2022-01-30T08:50:32Z</time>
      </trkpt>
      <trkpt lat="42.71354" lon="1.4024">
        <ele>1425</ele>
        <time>2022-01-30T08:51:12Z</time>
      </trkpt>
      <trkpt lat="42.71367" lon="1.4023">
        <ele>1428</ele>
        <time>2022-01-30T08:51:35Z</time>
      </trkpt>
      <trkpt lat="42.71382" lon="1.40228">
        <ele>1429</ele>
        <time>2022-01-30T08:51:49Z</time>
      </trkpt>
      <trkpt lat="42.71396" lon="1.40223">
        <ele>1435</ele>
        <time>2022-01-30T08:52:11Z</time>
      </trkpt>
      <trkpt lat="42.71411" lon="1.40221">
        <ele>1440</ele>
        <time>2022-01-30T08:52:39Z</time>
      </trkpt>
      <trkpt lat="42.71435" lon="1.402">
        <ele>1441</ele>
        <time>2022-01-30T08:53:26Z</time>
      </trkpt>
      <trkpt lat="42.71426" lon="1.40185">
        <ele>1439</ele>
        <time>2022-01-30T08:54:12Z</time>
      </trkpt>
      <trkpt lat="42.71432" lon="1.40166">
        <ele>1440</ele>
        <time>2022-01-30T08:56:25Z</time>
      </trkpt>
      <trkpt lat="42.7144" lon="1.40151">
        <ele>1450</ele>
        <time>2022-01-30T09:04:22Z</time>
      </trkpt>
      <trkpt lat="42.71449" lon="1.40134">
        <ele>1452</ele>
        <time>2022-01-30T09:04:54Z</time>
      </trkpt>
      <trkpt lat="42.71457" lon="1.40117">
        <ele>1455</ele>
        <time>2022-01-30T09:05:17Z</time>
      </trkpt>
      <trkpt lat="42.71466" lon="1.40102">
        <ele>1454</ele>
        <time>2022-01-30T09:05:38Z</time>
      </trkpt>
      <trkpt lat="42.71474" lon="1.40086">
        <ele>1452</ele>
        <time>2022-01-30T09:05:56Z</time>
      </trkpt>
      <trkpt lat="42.71489" lon="1.40051">
        <ele>1449</ele>
        <time>2022-01-30T09:06:41Z</time>
      </trkpt>
      <trkpt lat="42.71492" lon="1.40031">
        <ele>1449</ele>
        <time>2022-01-30T09:07:04Z</time>
      </trkpt>
      <trkpt lat="42.71483" lon="1.40016">
        <ele>1449</ele>
        <time>2022-01-30T09:07:32Z</time>
      </trkpt>
      <trkpt lat="42.71493" lon="1.40002">
        <ele>1451</ele>
        <time>2022-01-30T09:07:58Z</time>
      </trkpt>
      <trkpt lat="42.71501" lon="1.39986">
        <ele>1456</ele>
        <time>2022-01-30T09:08:17Z</time>
      </trkpt>
      <trkpt lat="42.71509" lon="1.39947">
        <ele>1461</ele>
        <time>2022-01-30T09:09:00Z</time>
      </trkpt>
      <trkpt lat="42.71523" lon="1.39912">
        <ele>1462</ele>
        <time>2022-01-30T09:09:40Z</time>
      </trkpt>
      <trkpt lat="42.71544" lon="1.39884">
        <ele>1465</ele>
        <time>2022-01-30T09:10:28Z</time>
      </trkpt>
      <trkpt lat="42.71559" lon="1.39875">
        <ele>1473</ele>
        <time>2022-01-30T09:10:55Z</time>
      </trkpt>
      <trkpt lat="42.7156" lon="1.39858">
        <ele>1487</ele>
        <time>2022-01-30T09:11:49Z</time>
      </trkpt>
      <trkpt lat="42.71552" lon="1.39841">
        <ele>1490</ele>
        <time>2022-01-30T09:12:21Z</time>
      </trkpt>
      <trkpt lat="42.71564" lon="1.3983">
        <ele>1499</ele>
        <time>2022-01-30T09:12:49Z</time>
      </trkpt>
      <trkpt lat="42.71563" lon="1.39811">
        <ele>1507</ele>
        <time>2022-01-30T09:13:58Z</time>
      </trkpt>
      <trkpt lat="42.71574" lon="1.39798">
        <ele>1518</ele>
        <time>2022-01-30T09:14:26Z</time>
      </trkpt>
      <trkpt lat="42.71565" lon="1.39784">
        <ele>1524</ele>
        <time>2022-01-30T09:15:25Z</time>
      </trkpt>
      <trkpt lat="42.71551" lon="1.39776">
        <ele>1527</ele>
        <time>2022-01-30T09:15:56Z</time>
      </trkpt>
      <trkpt lat="42.7154" lon="1.39764">
        <ele>1540</ele>
        <time>2022-01-30T09:16:35Z</time>
      </trkpt>
      <trkpt lat="42.71548" lon="1.39748">
        <ele>1543</ele>
        <time>2022-01-30T09:17:03Z</time>
      </trkpt>
      <trkpt lat="42.71554" lon="1.3973">
        <ele>1556</ele>
        <time>2022-01-30T09:19:33Z</time>
      </trkpt>
      <trkpt lat="42.71556" lon="1.39711">
        <ele>1561</ele>
        <time>2022-01-30T09:21:01Z</time>
      </trkpt>
      <trkpt lat="42.71547" lon="1.39695">
        <ele>1575</ele>
        <time>2022-01-30T09:22:04Z</time>
      </trkpt>
      <trkpt lat="42.71535" lon="1.39685">
        <ele>1583</ele>
        <time>2022-01-30T09:23:34Z</time>
      </trkpt>
      <trkpt lat="42.71527" lon="1.39668">
        <ele>1593</ele>
        <time>2022-01-30T09:24:10Z</time>
      </trkpt>
      <trkpt lat="42.71522" lon="1.39649">
        <ele>1601</ele>
        <time>2022-01-30T09:24:50Z</time>
      </trkpt>
      <trkpt lat="42.71518" lon="1.39629">
        <ele>1603</ele>
        <time>2022-01-30T09:25:15Z</time>
      </trkpt>
      <trkpt lat="42.71514" lon="1.3961">
        <ele>1606</ele>
        <time>2022-01-30T09:25:43Z</time>
      </trkpt>
      <trkpt lat="42.71513" lon="1.3959">
        <ele>1611</ele>
        <time>2022-01-30T09:26:07Z</time>
      </trkpt>
      <trkpt lat="42.71508" lon="1.39571">
        <ele>1614</ele>
        <time>2022-01-30T09:26:27Z</time>
      </trkpt>
      <trkpt lat="42.71505" lon="1.39551">
        <ele>1618</ele>
        <time>2022-01-30T09:26:45Z</time>
      </trkpt>
      <trkpt lat="42.71503" lon="1.39532">
        <ele>1621</ele>
        <time>2022-01-30T09:27:14Z</time>
      </trkpt>
      <trkpt lat="42.71501" lon="1.39512">
        <ele>1631</ele>
        <time>2022-01-30T09:32:35Z</time>
      </trkpt>
      <trkpt lat="42.71499" lon="1.39492">
        <ele>1633</ele>
        <time>2022-01-30T09:33:02Z</time>
      </trkpt>
      <trkpt lat="42.71498" lon="1.39472">
        <ele>1635</ele>
        <time>2022-01-30T09:33:22Z</time>
      </trkpt>
      <trkpt lat="42.715" lon="1.39451">
        <ele>1636</ele>
        <time>2022-01-30T09:33:39Z</time>
      </trkpt>
      <trkpt lat="42.71501" lon="1.39431">
        <ele>1639</ele>
        <time>2022-01-30T09:33:59Z</time>
      </trkpt>
      <trkpt lat="42.71487" lon="1.3943">
        <ele>1641</ele>
        <time>2022-01-30T09:34:17Z</time>
      </trkpt>
      <trkpt lat="42.71473" lon="1.39435">
        <ele>1650</ele>
        <time>2022-01-30T09:35:47Z</time>
      </trkpt>
      <trkpt lat="42.71463" lon="1.3942">
        <ele>1654</ele>
        <time>2022-01-30T09:36:04Z</time>
      </trkpt>
      <trkpt lat="42.7145" lon="1.39385">
        <ele>1655</ele>
        <time>2022-01-30T09:36:41Z</time>
      </trkpt>
      <trkpt lat="42.71418" lon="1.39317">
        <ele>1657</ele>
        <time>2022-01-30T09:37:39Z</time>
      </trkpt>
      <trkpt lat="42.7141" lon="1.39279">
        <ele>1661</ele>
        <time>2022-01-30T09:38:12Z</time>
      </trkpt>
      <trkpt lat="42.71407" lon="1.39239">
        <ele>1663</ele>
        <time>2022-01-30T09:38:40Z</time>
      </trkpt>
      <trkpt lat="42.71398" lon="1.39202">
        <ele>1667</ele>
        <time>2022-01-30T09:39:15Z</time>
      </trkpt>
      <trkpt lat="42.71377" lon="1.39174">
        <ele>1670</ele>
        <time>2022-01-30T09:39:53Z</time>
      </trkpt>
      <trkpt lat="42.71364" lon="1.39139">
        <ele>1677</ele>
        <time>2022-01-30T09:40:31Z</time>
      </trkpt>
      <trkpt lat="42.71362" lon="1.391">
        <ele>1677</ele>
        <time>2022-01-30T09:40:58Z</time>
      </trkpt>
      <trkpt lat="42.71365" lon="1.39059">
        <ele>1679</ele>
        <time>2022-01-30T09:41:29Z</time>
      </trkpt>
      <trkpt lat="42.71374" lon="1.39021">
        <ele>1680</ele>
        <time>2022-01-30T09:41:57Z</time>
      </trkpt>
      <trkpt lat="42.71378" lon="1.38982">
        <ele>1684</ele>
        <time>2022-01-30T09:42:32Z</time>
      </trkpt>
      <trkpt lat="42.71377" lon="1.38943">
        <ele>1687</ele>
        <time>2022-01-30T09:43:14Z</time>
      </trkpt>
      <trkpt lat="42.7138" lon="1.38903">
        <ele>1696</ele>
        <time>2022-01-30T09:44:05Z</time>
      </trkpt>
      <trkpt lat="42.71379" lon="1.38883">
        <ele>1695</ele>
        <time>2022-01-30T09:45:50Z</time>
      </trkpt>
      <trkpt lat="42.71364" lon="1.38881">
        <ele>1691</ele>
        <time>2022-01-30T09:46:54Z</time>
      </trkpt>
      <trkpt lat="42.71353" lon="1.38879">
        <ele>1692</ele>
        <time>2022-01-30T09:47:46Z</time>
      </trkpt>
      <trkpt lat="42.71339" lon="1.38876">
        <ele>1705</ele>
        <time>2022-01-30T09:49:39Z</time>
      </trkpt>
      <trkpt lat="42.71327" lon="1.38866">
        <ele>1714</ele>
        <time>2022-01-30T10:02:49Z</time>
      </trkpt>
      <trkpt lat="42.71324" lon="1.38847">
        <ele>1719</ele>
        <time>2022-01-30T10:03:17Z</time>
      </trkpt>
      <trkpt lat="42.71318" lon="1.38829">
        <ele>1720</ele>
        <time>2022-01-30T10:03:54Z</time>
      </trkpt>
      <trkpt lat="42.71304" lon="1.38821">
        <ele>1723</ele>
        <time>2022-01-30T10:04:51Z</time>
      </trkpt>
      <trkpt lat="42.71295" lon="1.38805">
        <ele>1727</ele>
        <time>2022-01-30T10:05:39Z</time>
      </trkpt>
      <trkpt lat="42.71283" lon="1.38792">
        <ele>1739</ele>
        <time>2022-01-30T10:06:16Z</time>
      </trkpt>
      <trkpt lat="42.71272" lon="1.38781">
        <ele>1742</ele>
        <time>2022-01-30T10:06:47Z</time>
      </trkpt>
      <trkpt lat="42.71258" lon="1.38773">
        <ele>1757</ele>
        <time>2022-01-30T10:15:32Z</time>
      </trkpt>
      <trkpt lat="42.71246" lon="1.38761">
        <ele>1757</ele>
        <time>2022-01-30T10:15:55Z</time>
      </trkpt>
      <trkpt lat="42.71242" lon="1.38742">
        <ele>1760</ele>
        <time>2022-01-30T10:16:13Z</time>
      </trkpt>
      <trkpt lat="42.71237" lon="1.38722">
        <ele>1761</ele>
        <time>2022-01-30T10:16:31Z</time>
      </trkpt>
      <trkpt lat="42.71222" lon="1.38688">
        <ele>1764</ele>
        <time>2022-01-30T10:17:00Z</time>
      </trkpt>
      <trkpt lat="42.7122" lon="1.38667">
        <ele>1766</ele>
        <time>2022-01-30T10:17:17Z</time>
      </trkpt>
      <trkpt lat="42.71221" lon="1.38648">
        <ele>1767</ele>
        <time>2022-01-30T10:17:36Z</time>
      </trkpt>
      <trkpt lat="42.71217" lon="1.38629">
        <ele>1769</ele>
        <time>2022-01-30T10:17:57Z</time>
      </trkpt>
      <trkpt lat="42.71217" lon="1.38609">
        <ele>1769</ele>
        <time>2022-01-30T10:18:11Z</time>
      </trkpt>
      <trkpt lat="42.71205" lon="1.38571">
        <ele>1771</ele>
        <time>2022-01-30T10:18:42Z</time>
      </trkpt>
      <trkpt lat="42.7118" lon="1.38551">
        <ele>1773</ele>
        <time>2022-01-30T10:19:11Z</time>
      </trkpt>
      <trkpt lat="42.71169" lon="1.38539">
        <ele>1774</ele>
        <time>2022-01-30T10:19:25Z</time>
      </trkpt>
      <trkpt lat="42.71173" lon="1.38518">
        <ele>1775</ele>
        <time>2022-01-30T10:19:36Z</time>
      </trkpt>
      <trkpt lat="42.71196" lon="1.38492">
        <ele>1775</ele>
        <time>2022-01-30T10:20:03Z</time>
      </trkpt>
      <trkpt lat="42.71208" lon="1.38479">
        <ele>1775</ele>
        <time>2022-01-30T10:20:38Z</time>
      </trkpt>
      <trkpt lat="42.7121" lon="1.38459">
        <ele>1775</ele>
        <time>2022-01-30T10:20:56Z</time>
      </trkpt>
      <trkpt lat="42.7121" lon="1.3844">
        <ele>1777</ele>
        <time>2022-01-30T10:21:14Z</time>
      </trkpt>
      <trkpt lat="42.71219" lon="1.3838">
        <ele>1779</ele>
        <time>2022-01-30T10:21:52Z</time>
      </trkpt>
      <trkpt lat="42.71224" lon="1.3834">
        <ele>1779</ele>
        <time>2022-01-30T10:22:23Z</time>
      </trkpt>
      <trkpt lat="42.71228" lon="1.38321">
        <ele>1780</ele>
        <time>2022-01-30T10:22:36Z</time>
      </trkpt>
      <trkpt lat="42.71235" lon="1.38282">
        <ele>1782</ele>
        <time>2022-01-30T10:23:15Z</time>
      </trkpt>
      <trkpt lat="42.71239" lon="1.38261">
        <ele>1783</ele>
        <time>2022-01-30T10:23:36Z</time>
      </trkpt>
      <trkpt lat="42.71242" lon="1.38241">
        <ele>1787</ele>
        <time>2022-01-30T10:24:00Z</time>
      </trkpt>
      <trkpt lat="42.71244" lon="1.38221">
        <ele>1787</ele>
        <time>2022-01-30T10:24:11Z</time>
      </trkpt>
      <trkpt lat="42.71239" lon="1.38202">
        <ele>1789</ele>
        <time>2022-01-30T10:24:26Z</time>
      </trkpt>
      <trkpt lat="42.7124" lon="1.38182">
        <ele>1789</ele>
        <time>2022-01-30T10:24:42Z</time>
      </trkpt>
      <trkpt lat="42.71215" lon="1.38161">
        <ele>1791</ele>
        <time>2022-01-30T10:25:18Z</time>
      </trkpt>
      <trkpt lat="42.71204" lon="1.38148">
        <ele>1793</ele>
        <time>2022-01-30T10:25:37Z</time>
      </trkpt>
      <trkpt lat="42.71194" lon="1.38134">
        <ele>1794</ele>
        <time>2022-01-30T10:26:03Z</time>
      </trkpt>
      <trkpt lat="42.71189" lon="1.38115">
        <ele>1799</ele>
        <time>2022-01-30T10:26:25Z</time>
      </trkpt>
      <trkpt lat="42.71186" lon="1.38096">
        <ele>1802</ele>
        <time>2022-01-30T10:27:05Z</time>
      </trkpt>
      <trkpt lat="42.71181" lon="1.38078">
        <ele>1810</ele>
        <time>2022-01-30T10:27:28Z</time>
      </trkpt>
      <trkpt lat="42.71172" lon="1.38063">
        <ele>1812</ele>
        <time>2022-01-30T10:27:49Z</time>
      </trkpt>
      <trkpt lat="42.71161" lon="1.3805">
        <ele>1819</ele>
        <time>2022-01-30T10:28:17Z</time>
      </trkpt>
      <trkpt lat="42.71153" lon="1.38029">
        <ele>1826</ele>
        <time>2022-01-30T10:30:28Z</time>
      </trkpt>
      <trkpt lat="42.71147" lon="1.38011">
        <ele>1837</ele>
        <time>2022-01-30T10:31:03Z</time>
      </trkpt>
      <trkpt lat="42.71136" lon="1.37998">
        <ele>1838</ele>
        <time>2022-01-30T10:31:25Z</time>
      </trkpt>
      <trkpt lat="42.71118" lon="1.37967">
        <ele>1842</ele>
        <time>2022-01-30T10:32:10Z</time>
      </trkpt>
      <trkpt lat="42.71097" lon="1.37939">
        <ele>1844</ele>
        <time>2022-01-30T10:32:52Z</time>
      </trkpt>
      <trkpt lat="42.71094" lon="1.3792">
        <ele>1846</ele>
        <time>2022-01-30T10:33:10Z</time>
      </trkpt>
      <trkpt lat="42.71088" lon="1.37881">
        <ele>1848</ele>
        <time>2022-01-30T10:34:41Z</time>
      </trkpt>
      <trkpt lat="42.7107" lon="1.3785">
        <ele>1856</ele>
        <time>2022-01-30T10:35:30Z</time>
      </trkpt>
      <trkpt lat="42.71045" lon="1.37831">
        <ele>1857</ele>
        <time>2022-01-30T10:36:12Z</time>
      </trkpt>
      <trkpt lat="42.71022" lon="1.37806">
        <ele>1874</ele>
        <time>2022-01-30T10:37:07Z</time>
      </trkpt>
      <trkpt lat="42.71009" lon="1.37771">
        <ele>1878</ele>
        <time>2022-01-30T10:38:06Z</time>
      </trkpt>
      <trkpt lat="42.70991" lon="1.37759">
        <ele>1884</ele>
        <time>2022-01-30T10:41:37Z</time>
      </trkpt>
      <trkpt lat="42.70983" lon="1.37742">
        <ele>1887</ele>
        <time>2022-01-30T10:42:07Z</time>
      </trkpt>
      <trkpt lat="42.70978" lon="1.37724">
        <ele>1890</ele>
        <time>2022-01-30T10:42:32Z</time>
      </trkpt>
      <trkpt lat="42.70976" lon="1.37704">
        <ele>1891</ele>
        <time>2022-01-30T10:43:22Z</time>
      </trkpt>
      <trkpt lat="42.7097" lon="1.37686">
        <ele>1892</ele>
        <time>2022-01-30T10:43:49Z</time>
      </trkpt>
      <trkpt lat="42.7097" lon="1.37666">
        <ele>1895</ele>
        <time>2022-01-30T10:44:03Z</time>
      </trkpt>
      <trkpt lat="42.70977" lon="1.37649">
        <ele>1896</ele>
        <time>2022-01-30T10:52:40Z</time>
      </trkpt>
      <trkpt lat="42.70979" lon="1.37628">
        <ele>1898</ele>
        <time>2022-01-30T10:52:56Z</time>
      </trkpt>
      <trkpt lat="42.70984" lon="1.37588">
        <ele>1898</ele>
        <time>2022-01-30T10:53:31Z</time>
      </trkpt>
      <trkpt lat="42.70985" lon="1.37569">
        <ele>1898</ele>
        <time>2022-01-30T10:53:46Z</time>
      </trkpt>
      <trkpt lat="42.70981" lon="1.3753">
        <ele>1898</ele>
        <time>2022-01-30T10:54:19Z</time>
      </trkpt>
      <trkpt lat="42.70974" lon="1.37492">
        <ele>1902</ele>
        <time>2022-01-30T10:54:56Z</time>
      </trkpt>
      <trkpt lat="42.70962" lon="1.37455">
        <ele>1907</ele>
        <time>2022-01-30T10:55:31Z</time>
      </trkpt>
      <trkpt lat="42.70955" lon="1.37437">
        <ele>1911</ele>
        <time>2022-01-30T10:55:50Z</time>
      </trkpt>
      <trkpt lat="42.70951" lon="1.37419">
        <ele>1912</ele>
        <time>2022-01-30T10:56:09Z</time>
      </trkpt>
      <trkpt lat="42.70945" lon="1.374">
        <ele>1915</ele>
        <time>2022-01-30T10:56:29Z</time>
      </trkpt>
      <trkpt lat="42.70942" lon="1.37381">
        <ele>1916</ele>
        <time>2022-01-30T10:56:52Z</time>
      </trkpt>
      <trkpt lat="42.70938" lon="1.37362">
        <ele>1920</ele>
        <time>2022-01-30T10:57:15Z</time>
      </trkpt>
      <trkpt lat="42.70938" lon="1.37342">
        <ele>1923</ele>
        <time>2022-01-30T10:58:09Z</time>
      </trkpt>
      <trkpt lat="42.70938" lon="1.37322">
        <ele>1928</ele>
        <time>2022-01-30T10:58:36Z</time>
      </trkpt>
      <trkpt lat="42.70938" lon="1.37302">
        <ele>1929</ele>
        <time>2022-01-30T10:59:01Z</time>
      </trkpt>
      <trkpt lat="42.70933" lon="1.37283">
        <ele>1933</ele>
        <time>2022-01-30T10:59:19Z</time>
      </trkpt>
      <trkpt lat="42.70936" lon="1.37263">
        <ele>1935</ele>
        <time>2022-01-30T10:59:40Z</time>
      </trkpt>
      <trkpt lat="42.70936" lon="1.37243">
        <ele>1940</ele>
        <time>2022-01-30T11:00:01Z</time>
      </trkpt>
      <trkpt lat="42.70933" lon="1.37224">
        <ele>1942</ele>
        <time>2022-01-30T11:00:28Z</time>
      </trkpt>
      <trkpt lat="42.70925" lon="1.37207">
        <ele>1946</ele>
        <time>2022-01-30T11:00:54Z</time>
      </trkpt>
      <trkpt lat="42.70931" lon="1.37189">
        <ele>1950</ele>
        <time>2022-01-30T11:02:07Z</time>
      </trkpt>
      <trkpt lat="42.70924" lon="1.37172">
        <ele>1954</ele>
        <time>2022-01-30T11:02:32Z</time>
      </trkpt>
      <trkpt lat="42.70914" lon="1.37157">
        <ele>1955</ele>
        <time>2022-01-30T11:02:53Z</time>
      </trkpt>
      <trkpt lat="42.70905" lon="1.37142">
        <ele>1958</ele>
        <time>2022-01-30T11:03:18Z</time>
      </trkpt>
      <trkpt lat="42.70897" lon="1.37125">
        <ele>1960</ele>
        <time>2022-01-30T11:03:47Z</time>
      </trkpt>
      <trkpt lat="42.70912" lon="1.37124">
        <ele>1965</ele>
        <time>2022-01-30T11:04:45Z</time>
      </trkpt>
      <trkpt lat="42.70925" lon="1.37132">
        <ele>1970</ele>
        <time>2022-01-30T11:05:06Z</time>
      </trkpt>
      <trkpt lat="42.7094" lon="1.37138">
        <ele>1973</ele>
        <time>2022-01-30T11:05:42Z</time>
      </trkpt>
      <trkpt lat="42.70955" lon="1.37136">
        <ele>1982</ele>
        <time>2022-01-30T11:06:56Z</time>
      </trkpt>
      <trkpt lat="42.70976" lon="1.37108">
        <ele>1987</ele>
        <time>2022-01-30T11:08:11Z</time>
      </trkpt>
      <trkpt lat="42.70996" lon="1.3708">
        <ele>1998</ele>
        <time>2022-01-30T11:09:01Z</time>
      </trkpt>
      <trkpt lat="42.71017" lon="1.37053">
        <ele>2002</ele>
        <time>2022-01-30T11:09:51Z</time>
      </trkpt>
      <trkpt lat="42.71039" lon="1.37025">
        <ele>2014</ele>
        <time>2022-01-30T11:10:36Z</time>
      </trkpt>
      <trkpt lat="42.7106" lon="1.36999">
        <ele>2017</ele>
        <time>2022-01-30T11:11:14Z</time>
      </trkpt>
      <trkpt lat="42.71072" lon="1.36962">
        <ele>2022</ele>
        <time>2022-01-30T11:11:57Z</time>
      </trkpt>
      <trkpt lat="42.71084" lon="1.36925">
        <ele>2026</ele>
        <time>2022-01-30T11:12:41Z</time>
      </trkpt>
      <trkpt lat="42.71103" lon="1.36895">
        <ele>2032</ele>
        <time>2022-01-30T11:13:34Z</time>
      </trkpt>
      <trkpt lat="42.71123" lon="1.36867">
        <ele>2036</ele>
        <time>2022-01-30T11:14:15Z</time>
      </trkpt>
      <trkpt lat="42.71137" lon="1.36869">
        <ele>2044</ele>
        <time>2022-01-30T11:16:22Z</time>
      </trkpt>
      <trkpt lat="42.7115" lon="1.36834">
        <ele>2051</ele>
        <time>2022-01-30T11:40:44Z</time>
      </trkpt>
      <trkpt lat="42.71169" lon="1.36804">
        <ele>2051</ele>
        <time>2022-01-30T11:41:45Z</time>
      </trkpt>
      <trkpt lat="42.71193" lon="1.3678">
        <ele>2070</ele>
        <time>2022-01-30T11:42:31Z</time>
      </trkpt>
      <trkpt lat="42.7121" lon="1.36749">
        <ele>2073</ele>
        <time>2022-01-30T11:43:15Z</time>
      </trkpt>
      <trkpt lat="42.71223" lon="1.36714">
        <ele>2081</ele>
        <time>2022-01-30T11:43:59Z</time>
      </trkpt>
      <trkpt lat="42.71236" lon="1.36679">
        <ele>2084</ele>
        <time>2022-01-30T11:44:45Z</time>
      </trkpt>
      <trkpt lat="42.71245" lon="1.36662">
        <ele>2088</ele>
        <time>2022-01-30T11:45:23Z</time>
      </trkpt>
      <trkpt lat="42.7125" lon="1.36644">
        <ele>2104</ele>
        <time>2022-01-30T11:46:16Z</time>
      </trkpt>
      <trkpt lat="42.71264" lon="1.36637">
        <ele>2117</ele>
        <time>2022-01-30T11:46:46Z</time>
      </trkpt>
      <trkpt lat="42.71271" lon="1.3662">
        <ele>2121</ele>
        <time>2022-01-30T11:47:20Z</time>
      </trkpt>
      <trkpt lat="42.71277" lon="1.36602">
        <ele>2127</ele>
        <time>2022-01-30T11:47:57Z</time>
      </trkpt>
      <trkpt lat="42.71291" lon="1.36597">
        <ele>2128</ele>
        <time>2022-01-30T11:48:25Z</time>
      </trkpt>
      <trkpt lat="42.71306" lon="1.36593">
        <ele>2132</ele>
        <time>2022-01-30T11:48:51Z</time>
      </trkpt>
      <trkpt lat="42.71312" lon="1.36577">
        <ele>2143</ele>
        <time>2022-01-30T11:50:00Z</time>
      </trkpt>
      <trkpt lat="42.71317" lon="1.36558">
        <ele>2150</ele>
        <time>2022-01-30T11:51:11Z</time>
      </trkpt>
      <trkpt lat="42.71331" lon="1.36556">
        <ele>2157</ele>
        <time>2022-01-30T11:51:37Z</time>
      </trkpt>
      <trkpt lat="42.71346" lon="1.36557">
        <ele>2164</ele>
        <time>2022-01-30T11:52:05Z</time>
      </trkpt>
      <trkpt lat="42.71352" lon="1.36539">
        <ele>2171</ele>
        <time>2022-01-30T11:54:14Z</time>
      </trkpt>
      <trkpt lat="42.71364" lon="1.3655">
        <ele>2175</ele>
        <time>2022-01-30T11:54:44Z</time>
      </trkpt>
      <trkpt lat="42.71379" lon="1.36554">
        <ele>2182</ele>
        <time>2022-01-30T11:56:07Z</time>
      </trkpt>
      <trkpt lat="42.71403" lon="1.36533">
        <ele>2197</ele>
        <time>2022-01-30T11:59:59Z</time>
      </trkpt>
      <trkpt lat="42.71418" lon="1.36538">
        <ele>2257</ele>
        <time>2022-01-30T12:03:48Z</time>
      </trkpt>
      <trkpt lat="42.71415" lon="1.36518">
        <ele>2266</ele>
        <time>2022-01-30T12:04:27Z</time>
      </trkpt>
      <trkpt lat="42.71427" lon="1.36506">
        <ele>2277</ele>
        <time>2022-01-30T12:06:23Z</time>
      </trkpt>
      <trkpt lat="42.71439" lon="1.36495">
        <ele>2293</ele>
        <time>2022-01-30T12:07:58Z</time>
      </trkpt>
      <trkpt lat="42.7145" lon="1.36483">
        <ele>2291</ele>
        <time>2022-01-30T12:09:19Z</time>
      </trkpt>
      <trkpt lat="42.71463" lon="1.36473">
        <ele>2291</ele>
        <time>2022-01-30T12:12:14Z</time>
      </trkpt>
      <trkpt lat="42.71476" lon="1.36465">
        <ele>2294</ele>
        <time>2022-01-30T12:13:32Z</time>
      </trkpt>
      <trkpt lat="42.71486" lon="1.36451">
        <ele>2308</ele>
        <time>2022-01-30T12:16:38Z</time>
      </trkpt>
      <trkpt lat="42.715" lon="1.36448">
        <ele>2310</ele>
        <time>2022-01-30T12:19:08Z</time>
      </trkpt>
      <trkpt lat="42.71513" lon="1.36438">
        <ele>2323</ele>
        <time>2022-01-30T12:21:04Z</time>
      </trkpt>
      <trkpt lat="42.71523" lon="1.36423">
        <ele>2326</ele>
        <time>2022-01-30T12:22:14Z</time>
      </trkpt>
      <trkpt lat="42.71537" lon="1.36417">
        <ele>2331</ele>
        <time>2022-01-30T12:24:32Z</time>
      </trkpt>
      <trkpt lat="42.71562" lon="1.36396">
        <ele>2339</ele>
        <time>2022-01-30T12:28:33Z</time>
      </trkpt>
      <trkpt lat="42.7159" lon="1.36388">
        <ele>2361</ele>
        <time>2022-01-30T12:32:15Z</time>
      </trkpt>
      <trkpt lat="42.7159" lon="1.36361">
        <ele>2364</ele>
        <time>2022-01-30T12:33:03Z</time>
      </trkpt>
      <trkpt lat="42.71596" lon="1.36362">
        <ele>2367</ele>
        <time>2022-01-30T12:33:23Z</time>
      </trkpt>
      <trkpt lat="42.71594" lon="1.36366">
        <ele>2369</ele>
        <time>2022-01-30T12:33:32Z</time>
      </trkpt>
      <trkpt lat="42.71595" lon="1.36371">
        <ele>2371</ele>
        <time>2022-01-30T12:33:38Z</time>
      </trkpt>
      <trkpt lat="42.71598" lon="1.36374">
        <ele>2372</ele>
        <time>2022-01-30T12:33:44Z</time>
      </trkpt>
      <trkpt lat="42.71604" lon="1.3638">
        <ele>2374</ele>
        <time>2022-01-30T12:33:57Z</time>
      </trkpt>
      <trkpt lat="42.7161" lon="1.36345">
        <ele>2378</ele>
        <time>2022-01-30T12:34:51Z</time>
      </trkpt>
      <trkpt lat="42.71612" lon="1.36335">
        <ele>2381</ele>
        <time>2022-01-30T12:34:59Z</time>
      </trkpt>
      <trkpt lat="42.71608" lon="1.36337">
        <ele>2381</ele>
        <time>2022-01-30T12:35:01Z</time>
      </trkpt>
      <trkpt lat="42.71606" lon="1.36329">
        <ele>2382</ele>
        <time>2022-01-30T12:35:11Z</time>
      </trkpt>
      <trkpt lat="42.71609" lon="1.36332">
        <ele>2383</ele>
        <time>2022-01-30T12:35:20Z</time>
      </trkpt>
      <trkpt lat="42.71611" lon="1.36334">
        <ele>2384</ele>
        <time>2022-01-30T12:35:37Z</time>
      </trkpt>
      <trkpt lat="42.71614" lon="1.36324">
        <ele>2387</ele>
        <time>2022-01-30T12:35:48Z</time>
      </trkpt>
      <trkpt lat="42.71619" lon="1.3633">
        <ele>2390</ele>
        <time>2022-01-30T12:36:12Z</time>
      </trkpt>
      <trkpt lat="42.7162" lon="1.36339">
        <ele>2392</ele>
        <time>2022-01-30T12:36:30Z</time>
      </trkpt>
      <trkpt lat="42.71621" lon="1.36345">
        <ele>2395</ele>
        <time>2022-01-30T12:36:41Z</time>
      </trkpt>
      <trkpt lat="42.71624" lon="1.36348">
        <ele>2395</ele>
        <time>2022-01-30T12:36:46Z</time>
      </trkpt>
      <trkpt lat="42.71627" lon="1.36352">
        <ele>2397</ele>
        <time>2022-01-30T12:36:53Z</time>
      </trkpt>
      <trkpt lat="42.7163" lon="1.36356">
        <ele>2399</ele>
        <time>2022-01-30T12:37:01Z</time>
      </trkpt>
      <trkpt lat="42.71637" lon="1.36361">
        <ele>2401</ele>
        <time>2022-01-30T12:37:21Z</time>
      </trkpt>
      <trkpt lat="42.7164" lon="1.36364">
        <ele>2402</ele>
        <time>2022-01-30T12:37:28Z</time>
      </trkpt>
      <trkpt lat="42.71641" lon="1.36369">
        <ele>2403</ele>
        <time>2022-01-30T12:37:39Z</time>
      </trkpt>
      <trkpt lat="42.71643" lon="1.36374">
        <ele>2404</ele>
        <time>2022-01-30T12:37:44Z</time>
      </trkpt>
      <trkpt lat="42.71648" lon="1.36386">
        <ele>2406</ele>
        <time>2022-01-30T12:37:59Z</time>
      </trkpt>
      <trkpt lat="42.71651" lon="1.36388">
        <ele>2407</ele>
        <time>2022-01-30T12:38:09Z</time>
      </trkpt>
      <trkpt lat="42.71652" lon="1.36384">
        <ele>2408</ele>
        <time>2022-01-30T12:40:03Z</time>
      </trkpt>
      <trkpt lat="42.71655" lon="1.36386">
        <ele>2408</ele>
        <time>2022-01-30T12:41:23Z</time>
      </trkpt>
      <trkpt lat="42.71659" lon="1.36384">
        <ele>2409</ele>
        <time>2022-01-30T12:41:26Z</time>
      </trkpt>
      <trkpt lat="42.71658" lon="1.3638">
        <ele>2410</ele>
        <time>2022-01-30T12:41:32Z</time>
      </trkpt>
      <trkpt lat="42.71658" lon="1.36375">
        <ele>2410</ele>
        <time>2022-01-30T12:41:36Z</time>
      </trkpt>
      <trkpt lat="42.71664" lon="1.36359">
        <ele>2411</ele>
        <time>2022-01-30T12:41:48Z</time>
      </trkpt>
      <trkpt lat="42.71663" lon="1.36354">
        <ele>2412</ele>
        <time>2022-01-30T12:41:53Z</time>
      </trkpt>
      <trkpt lat="42.71661" lon="1.3635">
        <ele>2412</ele>
        <time>2022-01-30T12:41:58Z</time>
      </trkpt>
      <trkpt lat="42.71658" lon="1.3635">
        <ele>2413</ele>
        <time>2022-01-30T12:42:02Z</time>
      </trkpt>
      <trkpt lat="42.71659" lon="1.36347">
        <ele>2413</ele>
        <time>2022-01-30T12:42:04Z</time>
      </trkpt>
      <trkpt lat="42.71662" lon="1.36343">
        <ele>2413</ele>
        <time>2022-01-30T12:42:06Z</time>
      </trkpt>
      <trkpt lat="42.71662" lon="1.36337">
        <ele>2414</ele>
        <time>2022-01-30T12:42:13Z</time>
      </trkpt>
      <trkpt lat="42.7166" lon="1.36333">
        <ele>2415</ele>
        <time>2022-01-30T12:42:19Z</time>
      </trkpt>
      <trkpt lat="42.71657" lon="1.36318">
        <ele>2417</ele>
        <time>2022-01-30T12:42:38Z</time>
      </trkpt>
      <trkpt lat="42.71658" lon="1.36314">
        <ele>2417</ele>
        <time>2022-01-30T12:42:43Z</time>
      </trkpt>
      <trkpt lat="42.7167" lon="1.36298">
        <ele>2422</ele>
        <time>2022-01-30T12:43:17Z</time>
      </trkpt>
      <trkpt lat="42.71674" lon="1.36298">
        <ele>2423</ele>
        <time>2022-01-30T12:43:26Z</time>
      </trkpt>
      <trkpt lat="42.71677" lon="1.36293">
        <ele>2423</ele>
        <time>2022-01-30T12:43:31Z</time>
      </trkpt>
      <trkpt lat="42.71681" lon="1.36292">
        <ele>2425</ele>
        <time>2022-01-30T12:43:39Z</time>
      </trkpt>
      <trkpt lat="42.71699" lon="1.36272">
        <ele>2430</ele>
        <time>2022-01-30T12:44:12Z</time>
      </trkpt>
      <trkpt lat="42.71705" lon="1.36264">
        <ele>2432</ele>
        <time>2022-01-30T12:44:22Z</time>
      </trkpt>
      <trkpt lat="42.71708" lon="1.36261">
        <ele>2432</ele>
        <time>2022-01-30T12:44:26Z</time>
      </trkpt>
      <trkpt lat="42.7171" lon="1.36256">
        <ele>2433</ele>
        <time>2022-01-30T12:44:31Z</time>
      </trkpt>
      <trkpt lat="42.71713" lon="1.36252">
        <ele>2434</ele>
        <time>2022-01-30T12:44:37Z</time>
      </trkpt>
      <trkpt lat="42.71716" lon="1.36249">
        <ele>2435</ele>
        <time>2022-01-30T12:44:40Z</time>
      </trkpt>
      <trkpt lat="42.71737" lon="1.36229">
        <ele>2439</ele>
        <time>2022-01-30T12:45:20Z</time>
      </trkpt>
      <trkpt lat="42.71766" lon="1.36202">
        <ele>2440</ele>
        <time>2022-01-30T12:45:49Z</time>
      </trkpt>
      <trkpt lat="42.71772" lon="1.36197">
        <ele>2440</ele>
        <time>2022-01-30T12:45:57Z</time>
      </trkpt>
      <trkpt lat="42.71779" lon="1.36195">
        <ele>2440</ele>
        <time>2022-01-30T12:46:05Z</time>
      </trkpt>
      <trkpt lat="42.71785" lon="1.36187">
        <ele>2441</ele>
        <time>2022-01-30T12:46:13Z</time>
      </trkpt>
      <trkpt lat="42.71793" lon="1.36181">
        <ele>2441</ele>
        <time>2022-01-30T12:46:20Z</time>
      </trkpt>
      <trkpt lat="42.71809" lon="1.36174">
        <ele>2441</ele>
        <time>2022-01-30T12:46:35Z</time>
      </trkpt>
      <trkpt lat="42.71813" lon="1.36172">
        <ele>2441</ele>
        <time>2022-01-30T12:46:40Z</time>
      </trkpt>
      <trkpt lat="42.7182" lon="1.36169">
        <ele>2442</ele>
        <time>2022-01-30T12:46:48Z</time>
      </trkpt>
      <trkpt lat="42.7183" lon="1.36159">
        <ele>2442</ele>
        <time>2022-01-30T12:46:57Z</time>
      </trkpt>
      <trkpt lat="42.71838" lon="1.36155">
        <ele>2442</ele>
        <time>2022-01-30T12:47:06Z</time>
      </trkpt>
      <trkpt lat="42.71842" lon="1.36154">
        <ele>2442</ele>
        <time>2022-01-30T12:47:11Z</time>
      </trkpt>
      <trkpt lat="42.71845" lon="1.36151">
        <ele>2441</ele>
        <time>2022-01-30T12:47:16Z</time>
      </trkpt>
      <trkpt lat="42.71862" lon="1.3615">
        <ele>2442</ele>
        <time>2022-01-30T12:49:05Z</time>
      </trkpt>
      <trkpt lat="42.71876" lon="1.36141">
        <ele>2443</ele>
        <time>2022-01-30T12:49:15Z</time>
      </trkpt>
      <trkpt lat="42.71917" lon="1.36119">
        <ele>2442</ele>
        <time>2022-01-30T12:49:56Z</time>
      </trkpt>
      <trkpt lat="42.71974" lon="1.36096">
        <ele>2443</ele>
        <time>2022-01-30T12:50:49Z</time>
      </trkpt>
      <trkpt lat="42.72032" lon="1.36074">
        <ele>2446</ele>
        <time>2022-01-30T12:51:43Z</time>
      </trkpt>
      <trkpt lat="42.72089" lon="1.36058">
        <ele>2446</ele>
        <time>2022-01-30T12:52:44Z</time>
      </trkpt>
      <trkpt lat="42.72118" lon="1.36062">
        <ele>2445</ele>
        <time>2022-01-30T12:53:28Z</time>
      </trkpt>
      <trkpt lat="42.72146" lon="1.36049">
        <ele>2447</ele>
        <time>2022-01-30T12:54:17Z</time>
      </trkpt>
      <trkpt lat="42.72173" lon="1.36034">
        <ele>2453</ele>
        <time>2022-01-30T12:55:05Z</time>
      </trkpt>
      <trkpt lat="42.72201" lon="1.36044">
        <ele>2458</ele>
        <time>2022-01-30T12:56:04Z</time>
      </trkpt>
      <trkpt lat="42.7223" lon="1.3605">
        <ele>2471</ele>
        <time>2022-01-30T12:56:55Z</time>
      </trkpt>
      <trkpt lat="42.72256" lon="1.36062">
        <ele>2476</ele>
        <time>2022-01-30T12:57:45Z</time>
      </trkpt>
      <trkpt lat="42.72267" lon="1.36099">
        <ele>2480</ele>
        <time>2022-01-30T12:58:32Z</time>
      </trkpt>
      <trkpt lat="42.72278" lon="1.36135">
        <ele>2486</ele>
        <time>2022-01-30T12:59:22Z</time>
      </trkpt>
      <trkpt lat="42.72295" lon="1.36167">
        <ele>2491</ele>
        <time>2022-01-30T13:00:08Z</time>
      </trkpt>
      <trkpt lat="42.72323" lon="1.36176">
        <ele>2496</ele>
        <time>2022-01-30T13:01:21Z</time>
      </trkpt>
      <trkpt lat="42.72352" lon="1.36171">
        <ele>2509</ele>
        <time>2022-01-30T13:02:19Z</time>
      </trkpt>
      <trkpt lat="42.72373" lon="1.36143">
        <ele>2512</ele>
        <time>2022-01-30T13:02:59Z</time>
      </trkpt>
      <trkpt lat="42.72384" lon="1.36106">
        <ele>2520</ele>
        <time>2022-01-30T13:03:56Z</time>
      </trkpt>
      <trkpt lat="42.72404" lon="1.36078">
        <ele>2523</ele>
        <time>2022-01-30T13:04:54Z</time>
      </trkpt>
      <trkpt lat="42.72426" lon="1.36103">
        <ele>2541</ele>
        <time>2022-01-30T13:07:01Z</time>
      </trkpt>
      <trkpt lat="42.7244" lon="1.36138">
        <ele>2560</ele>
        <time>2022-01-30T13:08:48Z</time>
      </trkpt>
      <trkpt lat="42.72449" lon="1.36154">
        <ele>2564</ele>
        <time>2022-01-30T13:09:32Z</time>
      </trkpt>
      <trkpt lat="42.72451" lon="1.36174">
        <ele>2570</ele>
        <time>2022-01-30T13:09:57Z</time>
      </trkpt>
      <trkpt lat="42.72455" lon="1.36194">
        <ele>2574</ele>
        <time>2022-01-30T13:10:38Z</time>
      </trkpt>
      <trkpt lat="42.72459" lon="1.36214">
        <ele>2580</ele>
        <time>2022-01-30T13:11:12Z</time>
      </trkpt>
      <trkpt lat="42.72465" lon="1.36232">
        <ele>2582</ele>
        <time>2022-01-30T13:11:35Z</time>
      </trkpt>
      <trkpt lat="42.72477" lon="1.36242">
        <ele>2586</ele>
        <time>2022-01-30T13:12:23Z</time>
      </trkpt>
      <trkpt lat="42.72484" lon="1.36259">
        <ele>2590</ele>
        <time>2022-01-30T13:13:23Z</time>
      </trkpt>
      <trkpt lat="42.72487" lon="1.3628">
        <ele>2597</ele>
        <time>2022-01-30T13:13:52Z</time>
      </trkpt>
      <trkpt lat="42.72492" lon="1.36299">
        <ele>2603</ele>
        <time>2022-01-30T13:14:23Z</time>
      </trkpt>
      <trkpt lat="42.7249" lon="1.36304">
        <ele>2605</ele>
        <time>2022-01-30T13:14:33Z</time>
      </trkpt>
      <trkpt lat="42.72488" lon="1.36307">
        <ele>2607</ele>
        <time>2022-01-30T13:14:37Z</time>
      </trkpt>
      <trkpt lat="42.72488" lon="1.36311">
        <ele>2608</ele>
        <time>2022-01-30T13:14:44Z</time>
      </trkpt>
      <trkpt lat="42.72486" lon="1.3632">
        <ele>2609</ele>
        <time>2022-01-30T13:14:55Z</time>
      </trkpt>
      <trkpt lat="42.72487" lon="1.36323">
        <ele>2610</ele>
        <time>2022-01-30T13:15:09Z</time>
      </trkpt>
      <trkpt lat="42.72489" lon="1.3632">
        <ele>2610</ele>
        <time>2022-01-30T13:15:14Z</time>
      </trkpt>
      <trkpt lat="42.72492" lon="1.36322">
        <ele>2611</ele>
        <time>2022-01-30T13:15:18Z</time>
      </trkpt>
      <trkpt lat="42.72494" lon="1.3632">
        <ele>2612</ele>
        <time>2022-01-30T13:15:28Z</time>
      </trkpt>
      <trkpt lat="42.72503" lon="1.36317">
        <ele>2614</ele>
        <time>2022-01-30T13:15:42Z</time>
      </trkpt>
      <trkpt lat="42.72509" lon="1.36315">
        <ele>2617</ele>
        <time>2022-01-30T13:15:59Z</time>
      </trkpt>
      <trkpt lat="42.72512" lon="1.36315">
        <ele>2617</ele>
        <time>2022-01-30T13:16:04Z</time>
      </trkpt>
      <trkpt lat="42.72514" lon="1.36314">
        <ele>2618</ele>
        <time>2022-01-30T13:16:11Z</time>
      </trkpt>
      <trkpt lat="42.72516" lon="1.36311">
        <ele>2619</ele>
        <time>2022-01-30T13:16:19Z</time>
      </trkpt>
      <trkpt lat="42.72519" lon="1.3631">
        <ele>2620</ele>
        <time>2022-01-30T13:16:24Z</time>
      </trkpt>
      <trkpt lat="42.72521" lon="1.36314">
        <ele>2621</ele>
        <time>2022-01-30T13:16:37Z</time>
      </trkpt>
      <trkpt lat="42.72522" lon="1.36323">
        <ele>2623</ele>
        <time>2022-01-30T13:16:47Z</time>
      </trkpt>
      <trkpt lat="42.72524" lon="1.36327">
        <ele>2624</ele>
        <time>2022-01-30T13:16:50Z</time>
      </trkpt>
      <trkpt lat="42.72523" lon="1.36335">
        <ele>2626</ele>
        <time>2022-01-30T13:17:02Z</time>
      </trkpt>
      <trkpt lat="42.72523" lon="1.36338">
        <ele>2627</ele>
        <time>2022-01-30T13:17:15Z</time>
      </trkpt>
      <trkpt lat="42.72525" lon="1.36341">
        <ele>2627</ele>
        <time>2022-01-30T13:17:18Z</time>
      </trkpt>
      <trkpt lat="42.72526" lon="1.36345">
        <ele>2628</ele>
        <time>2022-01-30T13:17:23Z</time>
      </trkpt>
      <trkpt lat="42.72527" lon="1.36349">
        <ele>2630</ele>
        <time>2022-01-30T13:17:33Z</time>
      </trkpt>
      <trkpt lat="42.72525" lon="1.36357">
        <ele>2633</ele>
        <time>2022-01-30T13:17:44Z</time>
      </trkpt>
      <trkpt lat="42.72523" lon="1.3636">
        <ele>2634</ele>
        <time>2022-01-30T13:17:50Z</time>
      </trkpt>
      <trkpt lat="42.72523" lon="1.36364">
        <ele>2635</ele>
        <time>2022-01-30T13:17:58Z</time>
      </trkpt>
      <trkpt lat="42.72522" lon="1.36367">
        <ele>2637</ele>
        <time>2022-01-30T13:18:02Z</time>
      </trkpt>
      <trkpt lat="42.72523" lon="1.36371">
        <ele>2638</ele>
        <time>2022-01-30T13:18:14Z</time>
      </trkpt>
      <trkpt lat="42.72521" lon="1.36375">
        <ele>2640</ele>
        <time>2022-01-30T13:18:19Z</time>
      </trkpt>
      <trkpt lat="42.72523" lon="1.36378">
        <ele>2641</ele>
        <time>2022-01-30T13:18:25Z</time>
      </trkpt>
      <trkpt lat="42.7253" lon="1.36372">
        <ele>2642</ele>
        <time>2022-01-30T13:18:46Z</time>
      </trkpt>
      <trkpt lat="42.72535" lon="1.36368">
        <ele>2643</ele>
        <time>2022-01-30T13:18:58Z</time>
      </trkpt>
      <trkpt lat="42.72538" lon="1.36365">
        <ele>2644</ele>
        <time>2022-01-30T13:19:05Z</time>
      </trkpt>
      <trkpt lat="42.7254" lon="1.36367">
        <ele>2645</ele>
        <time>2022-01-30T13:19:21Z</time>
      </trkpt>
      <trkpt lat="42.72539" lon="1.36375">
        <ele>2646</ele>
        <time>2022-01-30T13:19:31Z</time>
      </trkpt>
      <trkpt lat="42.72539" lon="1.36379">
        <ele>2647</ele>
        <time>2022-01-30T13:19:39Z</time>
      </trkpt>
      <trkpt lat="42.72536" lon="1.36386">
        <ele>2649</ele>
        <time>2022-01-30T13:19:48Z</time>
      </trkpt>
      <trkpt lat="42.72535" lon="1.36394">
        <ele>2651</ele>
        <time>2022-01-30T13:19:59Z</time>
      </trkpt>
      <trkpt lat="42.72534" lon="1.36398">
        <ele>2652</ele>
        <time>2022-01-30T13:20:03Z</time>
      </trkpt>
      <trkpt lat="42.72533" lon="1.36402">
        <ele>2653</ele>
        <time>2022-01-30T13:20:11Z</time>
      </trkpt>
      <trkpt lat="42.72531" lon="1.36405">
        <ele>2654</ele>
        <time>2022-01-30T13:20:20Z</time>
      </trkpt>
      <trkpt lat="42.72529" lon="1.36408">
        <ele>2656</ele>
        <time>2022-01-30T13:20:26Z</time>
      </trkpt>
      <trkpt lat="42.72527" lon="1.36411">
        <ele>2657</ele>
        <time>2022-01-30T13:20:32Z</time>
      </trkpt>
      <trkpt lat="42.72525" lon="1.36414">
        <ele>2658</ele>
        <time>2022-01-30T13:20:38Z</time>
      </trkpt>
      <trkpt lat="42.72526" lon="1.36418">
        <ele>2658</ele>
        <time>2022-01-30T13:20:43Z</time>
      </trkpt>
      <trkpt lat="42.72525" lon="1.36422">
        <ele>2659</ele>
        <time>2022-01-30T13:20:49Z</time>
      </trkpt>
      <trkpt lat="42.72523" lon="1.36425">
        <ele>2660</ele>
        <time>2022-01-30T13:21:01Z</time>
      </trkpt>
      <trkpt lat="42.72522" lon="1.36428">
        <ele>2662</ele>
        <time>2022-01-30T13:21:07Z</time>
      </trkpt>
      <trkpt lat="42.72521" lon="1.36431">
        <ele>2662</ele>
        <time>2022-01-30T13:21:14Z</time>
      </trkpt>
      <trkpt lat="42.72526" lon="1.36432">
        <ele>2664</ele>
        <time>2022-01-30T13:21:35Z</time>
      </trkpt>
      <trkpt lat="42.72527" lon="1.36435">
        <ele>2665</ele>
        <time>2022-01-30T13:22:02Z</time>
      </trkpt>
      <trkpt lat="42.72531" lon="1.36438">
        <ele>2666</ele>
        <time>2022-01-30T13:22:08Z</time>
      </trkpt>
      <trkpt lat="42.72531" lon="1.36442">
        <ele>2668</ele>
        <time>2022-01-30T13:22:14Z</time>
      </trkpt>
      <trkpt lat="42.72529" lon="1.36445">
        <ele>2670</ele>
        <time>2022-01-30T13:22:25Z</time>
      </trkpt>
      <trkpt lat="42.72523" lon="1.36449">
        <ele>2672</ele>
        <time>2022-01-30T13:22:30Z</time>
      </trkpt>
      <trkpt lat="42.72524" lon="1.36453">
        <ele>2672</ele>
        <time>2022-01-30T13:22:37Z</time>
      </trkpt>
      <trkpt lat="42.72521" lon="1.36454">
        <ele>2672</ele>
        <time>2022-01-30T13:22:39Z</time>
      </trkpt>
      <trkpt lat="42.72521" lon="1.36453">
        <ele>2674</ele>
        <time>2022-01-30T13:23:07Z</time>
      </trkpt>
      <trkpt lat="42.72524" lon="1.36453">
        <ele>2674</ele>
        <time>2022-01-30T13:23:11Z</time>
      </trkpt>
      <trkpt lat="42.72535" lon="1.36447">
        <ele>2675</ele>
        <time>2022-01-30T13:23:31Z</time>
      </trkpt>
      <trkpt lat="42.72539" lon="1.36441">
        <ele>2676</ele>
        <time>2022-01-30T13:24:02Z</time>
      </trkpt>
      <trkpt lat="42.72556" lon="1.36424">
        <ele>2678</ele>
        <time>2022-01-30T13:24:35Z</time>
      </trkpt>
      <trkpt lat="42.72559" lon="1.36421">
        <ele>2679</ele>
        <time>2022-01-30T13:24:41Z</time>
      </trkpt>
      <trkpt lat="42.72561" lon="1.3642">
        <ele>2679</ele>
        <time>2022-01-30T13:24:47Z</time>
      </trkpt>
      <trkpt lat="42.72564" lon="1.36417">
        <ele>2680</ele>
        <time>2022-01-30T13:25:01Z</time>
      </trkpt>
      <trkpt lat="42.72564" lon="1.36413">
        <ele>2681</ele>
        <time>2022-01-30T13:25:08Z</time>
      </trkpt>
      <trkpt lat="42.72565" lon="1.36409">
        <ele>2682</ele>
        <time>2022-01-30T13:25:12Z</time>
      </trkpt>
      <trkpt lat="42.72567" lon="1.36405">
        <ele>2683</ele>
        <time>2022-01-30T13:25:22Z</time>
      </trkpt>
      <trkpt lat="42.72567" lon="1.36401">
        <ele>2684</ele>
        <time>2022-01-30T13:25:35Z</time>
      </trkpt>
      <trkpt lat="42.72569" lon="1.36399">
        <ele>2684</ele>
        <time>2022-01-30T13:25:44Z</time>
      </trkpt>
      <trkpt lat="42.72572" lon="1.36398">
        <ele>2685</ele>
        <time>2022-01-30T13:25:54Z</time>
      </trkpt>
      <trkpt lat="42.72576" lon="1.36398">
        <ele>2686</ele>
        <time>2022-01-30T13:26:00Z</time>
      </trkpt>
      <trkpt lat="42.72575" lon="1.36394">
        <ele>2686</ele>
        <time>2022-01-30T13:26:11Z</time>
      </trkpt>
      <trkpt lat="42.72576" lon="1.36388">
        <ele>2688</ele>
        <time>2022-01-30T13:26:19Z</time>
      </trkpt>
      <trkpt lat="42.7258" lon="1.36387">
        <ele>2689</ele>
        <time>2022-01-30T13:26:23Z</time>
      </trkpt>
      <trkpt lat="42.72583" lon="1.36386">
        <ele>2690</ele>
        <time>2022-01-30T13:26:27Z</time>
      </trkpt>
      <trkpt lat="42.72587" lon="1.36385">
        <ele>2690</ele>
        <time>2022-01-30T13:26:32Z</time>
      </trkpt>
      <trkpt lat="42.72589" lon="1.36383">
        <ele>2691</ele>
        <time>2022-01-30T13:26:36Z</time>
      </trkpt>
      <trkpt lat="42.7259" lon="1.36377">
        <ele>2691</ele>
        <time>2022-01-30T13:26:44Z</time>
      </trkpt>
      <trkpt lat="42.7259" lon="1.36371">
        <ele>2693</ele>
        <time>2022-01-30T13:26:54Z</time>
      </trkpt>
      <trkpt lat="42.72593" lon="1.3637">
        <ele>2693</ele>
        <time>2022-01-30T13:26:57Z</time>
      </trkpt>
      <trkpt lat="42.72595" lon="1.36368">
        <ele>2694</ele>
        <time>2022-01-30T13:27:14Z</time>
      </trkpt>
      <trkpt lat="42.72596" lon="1.36364">
        <ele>2696</ele>
        <time>2022-01-30T13:31:07Z</time>
      </trkpt>
      <trkpt lat="42.72596" lon="1.36358">
        <ele>2698</ele>
        <time>2022-01-30T13:33:17Z</time>
      </trkpt>
      <trkpt lat="42.72598" lon="1.36354">
        <ele>2699</ele>
        <time>2022-01-30T13:33:32Z</time>
      </trkpt>
      <trkpt lat="42.72602" lon="1.36356">
        <ele>2699</ele>
        <time>2022-01-30T13:33:40Z</time>
      </trkpt>
      <trkpt lat="42.72606" lon="1.36356">
        <ele>2702</ele>
        <time>2022-01-30T13:34:06Z</time>
      </trkpt>
      <trkpt lat="42.72605" lon="1.36356">
        <ele>2705</ele>
        <time>2022-01-30T13:38:51Z</time>
      </trkpt>
      <trkpt lat="42.72604" lon="1.36354">
        <ele>2703</ele>
        <time>2022-01-30T13:52:52Z</time>
      </trkpt>
      <trkpt lat="42.72603" lon="1.36359">
        <ele>2703</ele>
        <time>2022-01-30T13:53:05Z</time>
      </trkpt>
      <trkpt lat="42.72601" lon="1.36361">
        <ele>2703</ele>
        <time>2022-01-30T13:53:11Z</time>
      </trkpt>
      <trkpt lat="42.72599" lon="1.36364">
        <ele>2703</ele>
        <time>2022-01-30T13:53:16Z</time>
      </trkpt>
      <trkpt lat="42.72598" lon="1.36369">
        <ele>2703</ele>
        <time>2022-01-30T13:53:37Z</time>
      </trkpt>
      <trkpt lat="42.72596" lon="1.3637">
        <ele>2702</ele>
        <time>2022-01-30T13:53:43Z</time>
      </trkpt>
      <trkpt lat="42.72593" lon="1.36371">
        <ele>2702</ele>
        <time>2022-01-30T13:53:49Z</time>
      </trkpt>
      <trkpt lat="42.7259" lon="1.3637">
        <ele>2701</ele>
        <time>2022-01-30T13:57:17Z</time>
      </trkpt>
      <trkpt lat="42.72586" lon="1.36368">
        <ele>2701</ele>
        <time>2022-01-30T13:57:25Z</time>
      </trkpt>
      <trkpt lat="42.72583" lon="1.36368">
        <ele>2700</ele>
        <time>2022-01-30T13:57:36Z</time>
      </trkpt>
      <trkpt lat="42.72582" lon="1.36358">
        <ele>2698</ele>
        <time>2022-01-30T13:57:57Z</time>
      </trkpt>
      <trkpt lat="42.72582" lon="1.36351">
        <ele>2698</ele>
        <time>2022-01-30T13:58:31Z</time>
      </trkpt>
      <trkpt lat="42.72584" lon="1.36339">
        <ele>2697</ele>
        <time>2022-01-30T13:58:35Z</time>
      </trkpt>
      <trkpt lat="42.72585" lon="1.36334">
        <ele>2696</ele>
        <time>2022-01-30T13:58:37Z</time>
      </trkpt>
      <trkpt lat="42.72582" lon="1.36333">
        <ele>2695</ele>
        <time>2022-01-30T13:58:40Z</time>
      </trkpt>
      <trkpt lat="42.72583" lon="1.36329">
        <ele>2695</ele>
        <time>2022-01-30T13:58:42Z</time>
      </trkpt>
      <trkpt lat="42.72582" lon="1.36324">
        <ele>2694</ele>
        <time>2022-01-30T13:58:44Z</time>
      </trkpt>
      <trkpt lat="42.72583" lon="1.36318">
        <ele>2694</ele>
        <time>2022-01-30T13:58:46Z</time>
      </trkpt>
      <trkpt lat="42.7258" lon="1.36315">
        <ele>2693</ele>
        <time>2022-01-30T13:58:48Z</time>
      </trkpt>
      <trkpt lat="42.72575" lon="1.36311">
        <ele>2692</ele>
        <time>2022-01-30T13:58:50Z</time>
      </trkpt>
      <trkpt lat="42.72577" lon="1.36305">
        <ele>2692</ele>
        <time>2022-01-30T13:58:52Z</time>
      </trkpt>
      <trkpt lat="42.72577" lon="1.36299">
        <ele>2691</ele>
        <time>2022-01-30T13:58:54Z</time>
      </trkpt>
      <trkpt lat="42.72574" lon="1.36296">
        <ele>2689</ele>
        <time>2022-01-30T13:59:07Z</time>
      </trkpt>
      <trkpt lat="42.72573" lon="1.36295">
        <ele>2685</ele>
        <time>2022-01-30T14:02:23Z</time>
      </trkpt>
      <trkpt lat="42.72572" lon="1.3629">
        <ele>2683</ele>
        <time>2022-01-30T14:02:33Z</time>
      </trkpt>
      <trkpt lat="42.72569" lon="1.36286">
        <ele>2681</ele>
        <time>2022-01-30T14:02:48Z</time>
      </trkpt>
      <trkpt lat="42.72565" lon="1.36281">
        <ele>2679</ele>
        <time>2022-01-30T14:02:55Z</time>
      </trkpt>
      <trkpt lat="42.72562" lon="1.36277">
        <ele>2678</ele>
        <time>2022-01-30T14:02:57Z</time>
      </trkpt>
      <trkpt lat="42.72559" lon="1.36281">
        <ele>2677</ele>
        <time>2022-01-30T14:02:59Z</time>
      </trkpt>
      <trkpt lat="42.72555" lon="1.36277">
        <ele>2676</ele>
        <time>2022-01-30T14:03:01Z</time>
      </trkpt>
      <trkpt lat="42.7255" lon="1.36277">
        <ele>2675</ele>
        <time>2022-01-30T14:03:03Z</time>
      </trkpt>
      <trkpt lat="42.72546" lon="1.36275">
        <ele>2673</ele>
        <time>2022-01-30T14:03:06Z</time>
      </trkpt>
      <trkpt lat="42.72543" lon="1.36267">
        <ele>2672</ele>
        <time>2022-01-30T14:03:08Z</time>
      </trkpt>
      <trkpt lat="42.72536" lon="1.36268">
        <ele>2671</ele>
        <time>2022-01-30T14:03:10Z</time>
      </trkpt>
      <trkpt lat="42.72533" lon="1.36266">
        <ele>2670</ele>
        <time>2022-01-30T14:03:11Z</time>
      </trkpt>
      <trkpt lat="42.7251" lon="1.36296">
        <ele>2639</ele>
        <time>2022-01-30T14:03:19Z</time>
      </trkpt>
      <trkpt lat="42.72506" lon="1.36296">
        <ele>2638</ele>
        <time>2022-01-30T14:03:23Z</time>
      </trkpt>
      <trkpt lat="42.72502" lon="1.36297">
        <ele>2635</ele>
        <time>2022-01-30T14:03:44Z</time>
      </trkpt>
      <trkpt lat="42.72501" lon="1.36288">
        <ele>2633</ele>
        <time>2022-01-30T14:03:46Z</time>
      </trkpt>
      <trkpt lat="42.72502" lon="1.36283">
        <ele>2628</ele>
        <time>2022-01-30T14:03:47Z</time>
      </trkpt>
      <trkpt lat="42.72505" lon="1.36279">
        <ele>2626</ele>
        <time>2022-01-30T14:03:48Z</time>
      </trkpt>
      <trkpt lat="42.72507" lon="1.36274">
        <ele>2623</ele>
        <time>2022-01-30T14:03:49Z</time>
      </trkpt>
      <trkpt lat="42.72508" lon="1.36268">
        <ele>2622</ele>
        <time>2022-01-30T14:03:50Z</time>
      </trkpt>
      <trkpt lat="42.72502" lon="1.36268">
        <ele>2620</ele>
        <time>2022-01-30T14:03:52Z</time>
      </trkpt>
      <trkpt lat="42.72492" lon="1.36276">
        <ele>2617</ele>
        <time>2022-01-30T14:03:54Z</time>
      </trkpt>
      <trkpt lat="42.72487" lon="1.36278">
        <ele>2616</ele>
        <time>2022-01-30T14:03:55Z</time>
      </trkpt>
      <trkpt lat="42.72484" lon="1.36276">
        <ele>2615</ele>
        <time>2022-01-30T14:03:56Z</time>
      </trkpt>
      <trkpt lat="42.72479" lon="1.36275">
        <ele>2614</ele>
        <time>2022-01-30T14:03:57Z</time>
      </trkpt>
      <trkpt lat="42.72475" lon="1.36277">
        <ele>2613</ele>
        <time>2022-01-30T14:03:58Z</time>
      </trkpt>
      <trkpt lat="42.72469" lon="1.36275">
        <ele>2612</ele>
        <time>2022-01-30T14:04:00Z</time>
      </trkpt>
      <trkpt lat="42.72464" lon="1.3628">
        <ele>2612</ele>
        <time>2022-01-30T14:04:02Z</time>
      </trkpt>
      <trkpt lat="42.72463" lon="1.36274">
        <ele>2611</ele>
        <time>2022-01-30T14:04:21Z</time>
      </trkpt>
      <trkpt lat="42.72468" lon="1.36248">
        <ele>2603</ele>
        <time>2022-01-30T14:04:26Z</time>
      </trkpt>
      <trkpt lat="42.72469" lon="1.36204">
        <ele>2591</ele>
        <time>2022-01-30T14:04:32Z</time>
      </trkpt>
      <trkpt lat="42.7247" lon="1.36197">
        <ele>2589</ele>
        <time>2022-01-30T14:04:33Z</time>
      </trkpt>
      <trkpt lat="42.72467" lon="1.36193">
        <ele>2588</ele>
        <time>2022-01-30T14:04:34Z</time>
      </trkpt>
      <trkpt lat="42.72462" lon="1.3619">
        <ele>2587</ele>
        <time>2022-01-30T14:04:35Z</time>
      </trkpt>
      <trkpt lat="42.72457" lon="1.36187">
        <ele>2586</ele>
        <time>2022-01-30T14:04:36Z</time>
      </trkpt>
      <trkpt lat="42.72455" lon="1.36182">
        <ele>2585</ele>
        <time>2022-01-30T14:04:37Z</time>
      </trkpt>
      <trkpt lat="42.72451" lon="1.36035">
        <ele>2562</ele>
        <time>2022-01-30T14:05:00Z</time>
      </trkpt>
      <trkpt lat="42.72443" lon="1.3601">
        <ele>2561</ele>
        <time>2022-01-30T14:05:05Z</time>
      </trkpt>
      <trkpt lat="42.72439" lon="1.36002">
        <ele>2561</ele>
        <time>2022-01-30T14:05:07Z</time>
      </trkpt>
      <trkpt lat="42.72436" lon="1.35998">
        <ele>2560</ele>
        <time>2022-01-30T14:05:08Z</time>
      </trkpt>
      <trkpt lat="42.72433" lon="1.35999">
        <ele>2560</ele>
        <time>2022-01-30T14:05:09Z</time>
      </trkpt>
      <trkpt lat="42.72428" lon="1.36005">
        <ele>2560</ele>
        <time>2022-01-30T14:05:11Z</time>
      </trkpt>
      <trkpt lat="42.72405" lon="1.35979">
        <ele>2558</ele>
        <time>2022-01-30T14:05:16Z</time>
      </trkpt>
      <trkpt lat="42.724" lon="1.35982">
        <ele>2557</ele>
        <time>2022-01-30T14:05:18Z</time>
      </trkpt>
      <trkpt lat="42.72395" lon="1.35986">
        <ele>2557</ele>
        <time>2022-01-30T14:05:19Z</time>
      </trkpt>
      <trkpt lat="42.72373" lon="1.35968">
        <ele>2554</ele>
        <time>2022-01-30T14:05:23Z</time>
      </trkpt>
      <trkpt lat="42.72368" lon="1.35963">
        <ele>2553</ele>
        <time>2022-01-30T14:05:24Z</time>
      </trkpt>
      <trkpt lat="42.72338" lon="1.35981">
        <ele>2547</ele>
        <time>2022-01-30T14:05:29Z</time>
      </trkpt>
      <trkpt lat="42.72326" lon="1.35978">
        <ele>2545</ele>
        <time>2022-01-30T14:05:31Z</time>
      </trkpt>
      <trkpt lat="42.72294" lon="1.35943">
        <ele>2528</ele>
        <time>2022-01-30T14:05:38Z</time>
      </trkpt>
      <trkpt lat="42.72286" lon="1.35938">
        <ele>2524</ele>
        <time>2022-01-30T14:05:40Z</time>
      </trkpt>
      <trkpt lat="42.72275" lon="1.35935">
        <ele>2521</ele>
        <time>2022-01-30T14:05:42Z</time>
      </trkpt>
      <trkpt lat="42.72264" lon="1.35933">
        <ele>2518</ele>
        <time>2022-01-30T14:05:44Z</time>
      </trkpt>
      <trkpt lat="42.72253" lon="1.35931">
        <ele>2516</ele>
        <time>2022-01-30T14:05:46Z</time>
      </trkpt>
      <trkpt lat="42.72249" lon="1.35939">
        <ele>2514</ele>
        <time>2022-01-30T14:05:50Z</time>
      </trkpt>
      <trkpt lat="42.72235" lon="1.35942">
        <ele>2513</ele>
        <time>2022-01-30T14:05:53Z</time>
      </trkpt>
      <trkpt lat="42.72219" lon="1.35943">
        <ele>2507</ele>
        <time>2022-01-30T14:05:56Z</time>
      </trkpt>
      <trkpt lat="42.72204" lon="1.35939">
        <ele>2506</ele>
        <time>2022-01-30T14:06:00Z</time>
      </trkpt>
      <trkpt lat="42.72192" lon="1.35952">
        <ele>2501</ele>
        <time>2022-01-30T14:06:06Z</time>
      </trkpt>
      <trkpt lat="42.72178" lon="1.35946">
        <ele>2498</ele>
        <time>2022-01-30T14:06:08Z</time>
      </trkpt>
      <trkpt lat="42.72164" lon="1.3594">
        <ele>2494</ele>
        <time>2022-01-30T14:06:10Z</time>
      </trkpt>
      <trkpt lat="42.72146" lon="1.35937">
        <ele>2490</ele>
        <time>2022-01-30T14:06:13Z</time>
      </trkpt>
      <trkpt lat="42.72132" lon="1.35933">
        <ele>2486</ele>
        <time>2022-01-30T14:06:16Z</time>
      </trkpt>
      <trkpt lat="42.72119" lon="1.35949">
        <ele>2484</ele>
        <time>2022-01-30T14:06:21Z</time>
      </trkpt>
      <trkpt lat="42.72105" lon="1.35956">
        <ele>2480</ele>
        <time>2022-01-30T14:06:23Z</time>
      </trkpt>
      <trkpt lat="42.72087" lon="1.3596">
        <ele>2477</ele>
        <time>2022-01-30T14:06:26Z</time>
      </trkpt>
      <trkpt lat="42.7207" lon="1.35967">
        <ele>2473</ele>
        <time>2022-01-30T14:06:29Z</time>
      </trkpt>
      <trkpt lat="42.72052" lon="1.35978">
        <ele>2470</ele>
        <time>2022-01-30T14:06:32Z</time>
      </trkpt>
      <trkpt lat="42.72034" lon="1.35992">
        <ele>2465</ele>
        <time>2022-01-30T14:06:35Z</time>
      </trkpt>
      <trkpt lat="42.72016" lon="1.36002">
        <ele>2460</ele>
        <time>2022-01-30T14:06:38Z</time>
      </trkpt>
      <trkpt lat="42.72" lon="1.36012">
        <ele>2456</ele>
        <time>2022-01-30T14:06:41Z</time>
      </trkpt>
      <trkpt lat="42.71963" lon="1.36038">
        <ele>2449</ele>
        <time>2022-01-30T14:06:46Z</time>
      </trkpt>
      <trkpt lat="42.71946" lon="1.36052">
        <ele>2445</ele>
        <time>2022-01-30T14:06:48Z</time>
      </trkpt>
      <trkpt lat="42.7193" lon="1.36063">
        <ele>2443</ele>
        <time>2022-01-30T14:06:50Z</time>
      </trkpt>
      <trkpt lat="42.71912" lon="1.36071">
        <ele>2439</ele>
        <time>2022-01-30T14:06:53Z</time>
      </trkpt>
      <trkpt lat="42.71896" lon="1.36079">
        <ele>2436</ele>
        <time>2022-01-30T14:06:57Z</time>
      </trkpt>
      <trkpt lat="42.71881" lon="1.36096">
        <ele>2435</ele>
        <time>2022-01-30T14:07:00Z</time>
      </trkpt>
      <trkpt lat="42.71869" lon="1.36109">
        <ele>2433</ele>
        <time>2022-01-30T14:07:03Z</time>
      </trkpt>
      <trkpt lat="42.71838" lon="1.36129">
        <ele>2432</ele>
        <time>2022-01-30T14:07:46Z</time>
      </trkpt>
      <trkpt lat="42.7182" lon="1.3615">
        <ele>2435</ele>
        <time>2022-01-30T14:08:27Z</time>
      </trkpt>
      <trkpt lat="42.71807" lon="1.3617">
        <ele>2438</ele>
        <time>2022-01-30T14:09:13Z</time>
      </trkpt>
      <trkpt lat="42.71792" lon="1.36181">
        <ele>2441</ele>
        <time>2022-01-30T14:09:47Z</time>
      </trkpt>
      <trkpt lat="42.71785" lon="1.36189">
        <ele>2443</ele>
        <time>2022-01-30T14:09:58Z</time>
      </trkpt>
      <trkpt lat="42.71769" lon="1.36198">
        <ele>2443</ele>
        <time>2022-01-30T14:10:13Z</time>
      </trkpt>
      <trkpt lat="42.71726" lon="1.36238">
        <ele>2442</ele>
        <time>2022-01-30T14:10:43Z</time>
      </trkpt>
      <trkpt lat="42.71723" lon="1.36245">
        <ele>2442</ele>
        <time>2022-01-30T14:10:54Z</time>
      </trkpt>
      <trkpt lat="42.71718" lon="1.36247">
        <ele>2442</ele>
        <time>2022-01-30T14:10:56Z</time>
      </trkpt>
      <trkpt lat="42.71711" lon="1.36252">
        <ele>2440</ele>
        <time>2022-01-30T14:11:37Z</time>
      </trkpt>
      <trkpt lat="42.71706" lon="1.36256">
        <ele>2439</ele>
        <time>2022-01-30T14:12:44Z</time>
      </trkpt>
      <trkpt lat="42.71703" lon="1.36261">
        <ele>2437</ele>
        <time>2022-01-30T14:12:46Z</time>
      </trkpt>
      <trkpt lat="42.71699" lon="1.36263">
        <ele>2436</ele>
        <time>2022-01-30T14:12:47Z</time>
      </trkpt>
      <trkpt lat="42.71694" lon="1.36262">
        <ele>2435</ele>
        <time>2022-01-30T14:12:48Z</time>
      </trkpt>
      <trkpt lat="42.71685" lon="1.36268">
        <ele>2432</ele>
        <time>2022-01-30T14:12:50Z</time>
      </trkpt>
      <trkpt lat="42.71679" lon="1.36271">
        <ele>2431</ele>
        <time>2022-01-30T14:12:51Z</time>
      </trkpt>
      <trkpt lat="42.71675" lon="1.36276">
        <ele>2430</ele>
        <time>2022-01-30T14:12:52Z</time>
      </trkpt>
      <trkpt lat="42.7167" lon="1.36278">
        <ele>2429</ele>
        <time>2022-01-30T14:12:53Z</time>
      </trkpt>
      <trkpt lat="42.71665" lon="1.36275">
        <ele>2428</ele>
        <time>2022-01-30T14:12:54Z</time>
      </trkpt>
      <trkpt lat="42.71659" lon="1.36276">
        <ele>2427</ele>
        <time>2022-01-30T14:12:55Z</time>
      </trkpt>
      <trkpt lat="42.71656" lon="1.36281">
        <ele>2427</ele>
        <time>2022-01-30T14:12:56Z</time>
      </trkpt>
      <trkpt lat="42.71653" lon="1.36286">
        <ele>2426</ele>
        <time>2022-01-30T14:12:57Z</time>
      </trkpt>
      <trkpt lat="42.71647" lon="1.36285">
        <ele>2426</ele>
        <time>2022-01-30T14:12:59Z</time>
      </trkpt>
      <trkpt lat="42.7164" lon="1.36288">
        <ele>2425</ele>
        <time>2022-01-30T14:13:01Z</time>
      </trkpt>
      <trkpt lat="42.71641" lon="1.36294">
        <ele>2423</ele>
        <time>2022-01-30T14:13:13Z</time>
      </trkpt>
      <trkpt lat="42.71638" lon="1.36302">
        <ele>2423</ele>
        <time>2022-01-30T14:13:17Z</time>
      </trkpt>
      <trkpt lat="42.71633" lon="1.36302">
        <ele>2422</ele>
        <time>2022-01-30T14:13:19Z</time>
      </trkpt>
      <trkpt lat="42.71628" lon="1.36309">
        <ele>2420</ele>
        <time>2022-01-30T14:13:21Z</time>
      </trkpt>
      <trkpt lat="42.71628" lon="1.36314">
        <ele>2419</ele>
        <time>2022-01-30T14:13:22Z</time>
      </trkpt>
      <trkpt lat="42.71618" lon="1.36342">
        <ele>2415</ele>
        <time>2022-01-30T14:13:30Z</time>
      </trkpt>
      <trkpt lat="42.71616" lon="1.36347">
        <ele>2414</ele>
        <time>2022-01-30T14:13:38Z</time>
      </trkpt>
      <trkpt lat="42.71617" lon="1.36354">
        <ele>2413</ele>
        <time>2022-01-30T14:14:28Z</time>
      </trkpt>
      <trkpt lat="42.71618" lon="1.36358">
        <ele>2412</ele>
        <time>2022-01-30T14:14:29Z</time>
      </trkpt>
      <trkpt lat="42.71618" lon="1.36363">
        <ele>2410</ele>
        <time>2022-01-30T14:14:30Z</time>
      </trkpt>
      <trkpt lat="42.71617" lon="1.36367">
        <ele>2409</ele>
        <time>2022-01-30T14:14:31Z</time>
      </trkpt>
      <trkpt lat="42.71613" lon="1.36373">
        <ele>2407</ele>
        <time>2022-01-30T14:14:33Z</time>
      </trkpt>
      <trkpt lat="42.71612" lon="1.36378">
        <ele>2406</ele>
        <time>2022-01-30T14:14:34Z</time>
      </trkpt>
      <trkpt lat="42.71608" lon="1.36381">
        <ele>2405</ele>
        <time>2022-01-30T14:14:36Z</time>
      </trkpt>
      <trkpt lat="42.71602" lon="1.36377">
        <ele>2404</ele>
        <time>2022-01-30T14:14:39Z</time>
      </trkpt>
      <trkpt lat="42.71599" lon="1.36382">
        <ele>2403</ele>
        <time>2022-01-30T14:14:41Z</time>
      </trkpt>
      <trkpt lat="42.71596" lon="1.3639">
        <ele>2402</ele>
        <time>2022-01-30T14:14:43Z</time>
      </trkpt>
      <trkpt lat="42.7159" lon="1.36391">
        <ele>2401</ele>
        <time>2022-01-30T14:14:45Z</time>
      </trkpt>
      <trkpt lat="42.71588" lon="1.36396">
        <ele>2400</ele>
        <time>2022-01-30T14:14:46Z</time>
      </trkpt>
      <trkpt lat="42.7158" lon="1.36389">
        <ele>2394</ele>
        <time>2022-01-30T14:14:49Z</time>
      </trkpt>
      <trkpt lat="42.71575" lon="1.36386">
        <ele>2392</ele>
        <time>2022-01-30T14:14:50Z</time>
      </trkpt>
      <trkpt lat="42.71572" lon="1.36391">
        <ele>2389</ele>
        <time>2022-01-30T14:14:53Z</time>
      </trkpt>
      <trkpt lat="42.71566" lon="1.36388">
        <ele>2388</ele>
        <time>2022-01-30T14:14:55Z</time>
      </trkpt>
      <trkpt lat="42.71564" lon="1.36392">
        <ele>2387</ele>
        <time>2022-01-30T14:14:56Z</time>
      </trkpt>
      <trkpt lat="42.71564" lon="1.36401">
        <ele>2386</ele>
        <time>2022-01-30T14:14:58Z</time>
      </trkpt>
      <trkpt lat="42.7156" lon="1.36406">
        <ele>2385</ele>
        <time>2022-01-30T14:15:00Z</time>
      </trkpt>
      <trkpt lat="42.71559" lon="1.36412">
        <ele>2384</ele>
        <time>2022-01-30T14:15:01Z</time>
      </trkpt>
      <trkpt lat="42.71553" lon="1.36411">
        <ele>2383</ele>
        <time>2022-01-30T14:15:03Z</time>
      </trkpt>
      <trkpt lat="42.71547" lon="1.36406">
        <ele>2381</ele>
        <time>2022-01-30T14:15:05Z</time>
      </trkpt>
      <trkpt lat="42.71543" lon="1.36411">
        <ele>2380</ele>
        <time>2022-01-30T14:15:07Z</time>
      </trkpt>
      <trkpt lat="42.71538" lon="1.36419">
        <ele>2373</ele>
        <time>2022-01-30T14:15:10Z</time>
      </trkpt>
      <trkpt lat="42.71537" lon="1.36424">
        <ele>2372</ele>
        <time>2022-01-30T14:15:11Z</time>
      </trkpt>
      <trkpt lat="42.71532" lon="1.36424">
        <ele>2364</ele>
        <time>2022-01-30T14:15:13Z</time>
      </trkpt>
      <trkpt lat="42.71531" lon="1.36431">
        <ele>2362</ele>
        <time>2022-01-30T14:15:15Z</time>
      </trkpt>
      <trkpt lat="42.71526" lon="1.36427">
        <ele>2356</ele>
        <time>2022-01-30T14:15:24Z</time>
      </trkpt>
      <trkpt lat="42.71522" lon="1.36428">
        <ele>2353</ele>
        <time>2022-01-30T14:15:27Z</time>
      </trkpt>
      <trkpt lat="42.71495" lon="1.3644">
        <ele>2345</ele>
        <time>2022-01-30T14:16:47Z</time>
      </trkpt>
      <trkpt lat="42.71468" lon="1.36454">
        <ele>2331</ele>
        <time>2022-01-30T14:17:08Z</time>
      </trkpt>
      <trkpt lat="42.71439" lon="1.36467">
        <ele>2324</ele>
        <time>2022-01-30T14:17:29Z</time>
      </trkpt>
      <trkpt lat="42.71419" lon="1.365">
        <ele>2303</ele>
        <time>2022-01-30T14:18:00Z</time>
      </trkpt>
      <trkpt lat="42.71372" lon="1.36549">
        <ele>2272</ele>
        <time>2022-01-30T14:18:43Z</time>
      </trkpt>
      <trkpt lat="42.71346" lon="1.3657">
        <ele>2257</ele>
        <time>2022-01-30T14:19:11Z</time>
      </trkpt>
      <trkpt lat="42.71318" lon="1.36584">
        <ele>2249</ele>
        <time>2022-01-30T14:19:46Z</time>
      </trkpt>
      <trkpt lat="42.71319" lon="1.36627">
        <ele>2249</ele>
        <time>2022-01-30T14:20:14Z</time>
      </trkpt>
      <trkpt lat="42.71335" lon="1.36666">
        <ele>2226</ele>
        <time>2022-01-30T14:20:20Z</time>
      </trkpt>
      <trkpt lat="42.71343" lon="1.36705">
        <ele>2199</ele>
        <time>2022-01-30T14:20:25Z</time>
      </trkpt>
      <trkpt lat="42.71337" lon="1.36744">
        <ele>2163</ele>
        <time>2022-01-30T14:20:38Z</time>
      </trkpt>
      <trkpt lat="42.71326" lon="1.36781">
        <ele>2147</ele>
        <time>2022-01-30T14:20:44Z</time>
      </trkpt>
      <trkpt lat="42.7132" lon="1.36822">
        <ele>2135</ele>
        <time>2022-01-30T14:20:56Z</time>
      </trkpt>
      <trkpt lat="42.7129" lon="1.36821">
        <ele>2122</ele>
        <time>2022-01-30T14:21:04Z</time>
      </trkpt>
      <trkpt lat="42.71265" lon="1.3685">
        <ele>2102</ele>
        <time>2022-01-30T14:21:16Z</time>
      </trkpt>
      <trkpt lat="42.71239" lon="1.36876">
        <ele>2089</ele>
        <time>2022-01-30T14:21:24Z</time>
      </trkpt>
      <trkpt lat="42.71208" lon="1.36877">
        <ele>2078</ele>
        <time>2022-01-30T14:21:34Z</time>
      </trkpt>
      <trkpt lat="42.7118" lon="1.36901">
        <ele>2069</ele>
        <time>2022-01-30T14:21:41Z</time>
      </trkpt>
      <trkpt lat="42.7116" lon="1.36931">
        <ele>2061</ele>
        <time>2022-01-30T14:21:49Z</time>
      </trkpt>
      <trkpt lat="42.7114" lon="1.36967">
        <ele>2057</ele>
        <time>2022-01-30T14:21:55Z</time>
      </trkpt>
      <trkpt lat="42.71123" lon="1.37">
        <ele>2050</ele>
        <time>2022-01-30T14:22:02Z</time>
      </trkpt>
      <trkpt lat="42.71103" lon="1.37033">
        <ele>2047</ele>
        <time>2022-01-30T14:22:09Z</time>
      </trkpt>
      <trkpt lat="42.71082" lon="1.37067">
        <ele>2040</ele>
        <time>2022-01-30T14:22:18Z</time>
      </trkpt>
      <trkpt lat="42.71049" lon="1.3707">
        <ele>2035</ele>
        <time>2022-01-30T14:29:09Z</time>
      </trkpt>
      <trkpt lat="42.71026" lon="1.37097">
        <ele>2032</ele>
        <time>2022-01-30T14:29:16Z</time>
      </trkpt>
      <trkpt lat="42.7102" lon="1.37117">
        <ele>2031</ele>
        <time>2022-01-30T14:29:24Z</time>
      </trkpt>
      <trkpt lat="42.71005" lon="1.37133">
        <ele>2029</ele>
        <time>2022-01-30T14:29:40Z</time>
      </trkpt>
      <trkpt lat="42.70998" lon="1.37154">
        <ele>2023</ele>
        <time>2022-01-30T14:29:43Z</time>
      </trkpt>
      <trkpt lat="42.70994" lon="1.37173">
        <ele>2020</ele>
        <time>2022-01-30T14:29:53Z</time>
      </trkpt>
      <trkpt lat="42.7099" lon="1.37215">
        <ele>2014</ele>
        <time>2022-01-30T14:30:22Z</time>
      </trkpt>
      <trkpt lat="42.70987" lon="1.37235">
        <ele>2007</ele>
        <time>2022-01-30T14:30:26Z</time>
      </trkpt>
      <trkpt lat="42.70972" lon="1.37239">
        <ele>2005</ele>
        <time>2022-01-30T14:30:32Z</time>
      </trkpt>
      <trkpt lat="42.70961" lon="1.37255">
        <ele>1996</ele>
        <time>2022-01-30T14:30:36Z</time>
      </trkpt>
      <trkpt lat="42.70948" lon="1.37269">
        <ele>1989</ele>
        <time>2022-01-30T14:30:40Z</time>
      </trkpt>
      <trkpt lat="42.70943" lon="1.37288">
        <ele>1975</ele>
        <time>2022-01-30T14:31:14Z</time>
      </trkpt>
      <trkpt lat="42.70938" lon="1.3731">
        <ele>1971</ele>
        <time>2022-01-30T14:31:19Z</time>
      </trkpt>
      <trkpt lat="42.7094" lon="1.37353">
        <ele>1960</ele>
        <time>2022-01-30T14:31:35Z</time>
      </trkpt>
      <trkpt lat="42.70947" lon="1.37375">
        <ele>1956</ele>
        <time>2022-01-30T14:31:41Z</time>
      </trkpt>
      <trkpt lat="42.70956" lon="1.37392">
        <ele>1953</ele>
        <time>2022-01-30T14:31:45Z</time>
      </trkpt>
      <trkpt lat="42.70966" lon="1.37409">
        <ele>1947</ele>
        <time>2022-01-30T14:31:49Z</time>
      </trkpt>
      <trkpt lat="42.70978" lon="1.37426">
        <ele>1944</ele>
        <time>2022-01-30T14:31:53Z</time>
      </trkpt>
      <trkpt lat="42.70993" lon="1.37467">
        <ele>1937</ele>
        <time>2022-01-30T14:32:02Z</time>
      </trkpt>
      <trkpt lat="42.70992" lon="1.37489">
        <ele>1933</ele>
        <time>2022-01-30T14:32:05Z</time>
      </trkpt>
      <trkpt lat="42.70991" lon="1.37513">
        <ele>1928</ele>
        <time>2022-01-30T14:32:08Z</time>
      </trkpt>
      <trkpt lat="42.70989" lon="1.37533">
        <ele>1924</ele>
        <time>2022-01-30T14:32:11Z</time>
      </trkpt>
      <trkpt lat="42.70991" lon="1.37556">
        <ele>1918</ele>
        <time>2022-01-30T14:32:15Z</time>
      </trkpt>
      <trkpt lat="42.70989" lon="1.3758">
        <ele>1915</ele>
        <time>2022-01-30T14:32:18Z</time>
      </trkpt>
      <trkpt lat="42.70988" lon="1.37603">
        <ele>1911</ele>
        <time>2022-01-30T14:32:21Z</time>
      </trkpt>
      <trkpt lat="42.70982" lon="1.37623">
        <ele>1909</ele>
        <time>2022-01-30T14:32:24Z</time>
      </trkpt>
      <trkpt lat="42.70973" lon="1.3764">
        <ele>1905</ele>
        <time>2022-01-30T14:32:27Z</time>
      </trkpt>
      <trkpt lat="42.70973" lon="1.3766">
        <ele>1904</ele>
        <time>2022-01-30T14:32:30Z</time>
      </trkpt>
      <trkpt lat="42.70972" lon="1.3768">
        <ele>1901</ele>
        <time>2022-01-30T14:32:33Z</time>
      </trkpt>
      <trkpt lat="42.70978" lon="1.37699">
        <ele>1900</ele>
        <time>2022-01-30T14:32:41Z</time>
      </trkpt>
      <trkpt lat="42.70982" lon="1.37719">
        <ele>1899</ele>
        <time>2022-01-30T14:32:48Z</time>
      </trkpt>
      <trkpt lat="42.71002" lon="1.37793">
        <ele>1898</ele>
        <time>2022-01-30T14:33:20Z</time>
      </trkpt>
      <trkpt lat="42.71027" lon="1.37815">
        <ele>1897</ele>
        <time>2022-01-30T14:33:42Z</time>
      </trkpt>
      <trkpt lat="42.71045" lon="1.37846">
        <ele>1891</ele>
        <time>2022-01-30T14:33:50Z</time>
      </trkpt>
      <trkpt lat="42.71075" lon="1.37868">
        <ele>1889</ele>
        <time>2022-01-30T14:33:59Z</time>
      </trkpt>
      <trkpt lat="42.71099" lon="1.3789">
        <ele>1883</ele>
        <time>2022-01-30T14:34:07Z</time>
      </trkpt>
      <trkpt lat="42.71115" lon="1.37925">
        <ele>1880</ele>
        <time>2022-01-30T14:34:27Z</time>
      </trkpt>
      <trkpt lat="42.71131" lon="1.37963">
        <ele>1873</ele>
        <time>2022-01-30T14:34:47Z</time>
      </trkpt>
      <trkpt lat="42.71139" lon="1.38001">
        <ele>1863</ele>
        <time>2022-01-30T14:35:07Z</time>
      </trkpt>
      <trkpt lat="42.71158" lon="1.38034">
        <ele>1851</ele>
        <time>2022-01-30T14:35:23Z</time>
      </trkpt>
      <trkpt lat="42.7118" lon="1.38061">
        <ele>1847</ele>
        <time>2022-01-30T14:35:37Z</time>
      </trkpt>
      <trkpt lat="42.71196" lon="1.38094">
        <ele>1835</ele>
        <time>2022-01-30T14:36:03Z</time>
      </trkpt>
      <trkpt lat="42.71213" lon="1.38128">
        <ele>1828</ele>
        <time>2022-01-30T14:37:17Z</time>
      </trkpt>
      <trkpt lat="42.7124" lon="1.38142">
        <ele>1824</ele>
        <time>2022-01-30T14:37:27Z</time>
      </trkpt>
      <trkpt lat="42.71244" lon="1.38183">
        <ele>1822</ele>
        <time>2022-01-30T14:37:36Z</time>
      </trkpt>
      <trkpt lat="42.71237" lon="1.38229">
        <ele>1812</ele>
        <time>2022-01-30T14:37:42Z</time>
      </trkpt>
      <trkpt lat="42.71232" lon="1.3827">
        <ele>1808</ele>
        <time>2022-01-30T14:37:53Z</time>
      </trkpt>
      <trkpt lat="42.71227" lon="1.38312">
        <ele>1798</ele>
        <time>2022-01-30T14:37:57Z</time>
      </trkpt>
      <trkpt lat="42.7122" lon="1.38355">
        <ele>1793</ele>
        <time>2022-01-30T14:38:01Z</time>
      </trkpt>
      <trkpt lat="42.71215" lon="1.38397">
        <ele>1785</ele>
        <time>2022-01-30T14:38:07Z</time>
      </trkpt>
      <trkpt lat="42.71208" lon="1.38477">
        <ele>1782</ele>
        <time>2022-01-30T14:38:31Z</time>
      </trkpt>
      <trkpt lat="42.71178" lon="1.38508">
        <ele>1781</ele>
        <time>2022-01-30T14:38:38Z</time>
      </trkpt>
      <trkpt lat="42.71189" lon="1.38551">
        <ele>1769</ele>
        <time>2022-01-30T14:39:11Z</time>
      </trkpt>
      <trkpt lat="42.71209" lon="1.38583">
        <ele>1773</ele>
        <time>2022-01-30T14:39:54Z</time>
      </trkpt>
      <trkpt lat="42.71221" lon="1.38664">
        <ele>1771</ele>
        <time>2022-01-30T14:40:39Z</time>
      </trkpt>
      <trkpt lat="42.71229" lon="1.38702">
        <ele>1769</ele>
        <time>2022-01-30T14:40:44Z</time>
      </trkpt>
      <trkpt lat="42.71242" lon="1.38738">
        <ele>1766</ele>
        <time>2022-01-30T14:40:51Z</time>
      </trkpt>
      <trkpt lat="42.71271" lon="1.38812">
        <ele>1764</ele>
        <time>2022-01-30T14:41:05Z</time>
      </trkpt>
      <trkpt lat="42.71278" lon="1.38829">
        <ele>1764</ele>
        <time>2022-01-30T14:42:03Z</time>
      </trkpt>
      <trkpt lat="42.71284" lon="1.38849">
        <ele>1763</ele>
        <time>2022-01-30T14:42:33Z</time>
      </trkpt>
      <trkpt lat="42.71298" lon="1.38852">
        <ele>1758</ele>
        <time>2022-01-30T14:44:44Z</time>
      </trkpt>
      <trkpt lat="42.71297" lon="1.38832">
        <ele>1752</ele>
        <time>2022-01-30T14:45:03Z</time>
      </trkpt>
      <trkpt lat="42.71304" lon="1.38813">
        <ele>1751</ele>
        <time>2022-01-30T14:45:19Z</time>
      </trkpt>
      <trkpt lat="42.71319" lon="1.38818">
        <ele>1750</ele>
        <time>2022-01-30T14:45:30Z</time>
      </trkpt>
      <trkpt lat="42.71327" lon="1.38801">
        <ele>1744</ele>
        <time>2022-01-30T14:47:45Z</time>
      </trkpt>
      <trkpt lat="42.7134" lon="1.3881">
        <ele>1743</ele>
        <time>2022-01-30T14:48:17Z</time>
      </trkpt>
      <trkpt lat="42.71346" lon="1.38833">
        <ele>1734</ele>
        <time>2022-01-30T14:48:22Z</time>
      </trkpt>
      <trkpt lat="42.71352" lon="1.38857">
        <ele>1727</ele>
        <time>2022-01-30T14:48:26Z</time>
      </trkpt>
      <trkpt lat="42.71355" lon="1.38877">
        <ele>1721</ele>
        <time>2022-01-30T14:48:30Z</time>
      </trkpt>
      <trkpt lat="42.71357" lon="1.38902">
        <ele>1717</ele>
        <time>2022-01-30T14:48:34Z</time>
      </trkpt>
      <trkpt lat="42.71372" lon="1.38914">
        <ele>1711</ele>
        <time>2022-01-30T14:48:38Z</time>
      </trkpt>
      <trkpt lat="42.71362" lon="1.38951">
        <ele>1707</ele>
        <time>2022-01-30T14:58:25Z</time>
      </trkpt>
      <trkpt lat="42.7135" lon="1.38991">
        <ele>1705</ele>
        <time>2022-01-30T14:58:31Z</time>
      </trkpt>
      <trkpt lat="42.71351" lon="1.39036">
        <ele>1701</ele>
        <time>2022-01-30T14:58:38Z</time>
      </trkpt>
      <trkpt lat="42.71353" lon="1.3908">
        <ele>1694</ele>
        <time>2022-01-30T14:58:47Z</time>
      </trkpt>
      <trkpt lat="42.71355" lon="1.39119">
        <ele>1691</ele>
        <time>2022-01-30T14:58:53Z</time>
      </trkpt>
      <trkpt lat="42.7136" lon="1.39159">
        <ele>1687</ele>
        <time>2022-01-30T14:59:09Z</time>
      </trkpt>
      <trkpt lat="42.71384" lon="1.39186">
        <ele>1687</ele>
        <time>2022-01-30T14:59:33Z</time>
      </trkpt>
      <trkpt lat="42.71407" lon="1.39258">
        <ele>1689</ele>
        <time>2022-01-30T15:00:01Z</time>
      </trkpt>
      <trkpt lat="42.71413" lon="1.39296">
        <ele>1685</ele>
        <time>2022-01-30T15:00:07Z</time>
      </trkpt>
      <trkpt lat="42.71427" lon="1.39339">
        <ele>1682</ele>
        <time>2022-01-30T15:00:13Z</time>
      </trkpt>
      <trkpt lat="42.71448" lon="1.39373">
        <ele>1677</ele>
        <time>2022-01-30T15:00:18Z</time>
      </trkpt>
      <trkpt lat="42.71461" lon="1.39409">
        <ele>1676</ele>
        <time>2022-01-30T15:00:25Z</time>
      </trkpt>
      <trkpt lat="42.71464" lon="1.3945">
        <ele>1675</ele>
        <time>2022-01-30T15:00:35Z</time>
      </trkpt>
      <trkpt lat="42.71473" lon="1.39489">
        <ele>1673</ele>
        <time>2022-01-30T15:00:54Z</time>
      </trkpt>
      <trkpt lat="42.71497" lon="1.39515">
        <ele>1661</ele>
        <time>2022-01-30T15:01:03Z</time>
      </trkpt>
      <trkpt lat="42.7151" lon="1.39552">
        <ele>1655</ele>
        <time>2022-01-30T15:01:11Z</time>
      </trkpt>
      <trkpt lat="42.71517" lon="1.3959">
        <ele>1644</ele>
        <time>2022-01-30T15:02:42Z</time>
      </trkpt>
      <trkpt lat="42.71524" lon="1.3963">
        <ele>1643</ele>
        <time>2022-01-30T15:02:52Z</time>
      </trkpt>
      <trkpt lat="42.71529" lon="1.39669">
        <ele>1634</ele>
        <time>2022-01-30T15:03:08Z</time>
      </trkpt>
      <trkpt lat="42.71551" lon="1.39696">
        <ele>1628</ele>
        <time>2022-01-30T15:03:43Z</time>
      </trkpt>
      <trkpt lat="42.71555" lon="1.39736">
        <ele>1607</ele>
        <time>2022-01-30T15:04:29Z</time>
      </trkpt>
      <trkpt lat="42.71545" lon="1.39776">
        <ele>1582</ele>
        <time>2022-01-30T15:05:09Z</time>
      </trkpt>
      <trkpt lat="42.71558" lon="1.39791">
        <ele>1580</ele>
        <time>2022-01-30T15:05:19Z</time>
      </trkpt>
      <trkpt lat="42.71567" lon="1.3983">
        <ele>1564</ele>
        <time>2022-01-30T15:05:48Z</time>
      </trkpt>
      <trkpt lat="42.71558" lon="1.39851">
        <ele>1559</ele>
        <time>2022-01-30T15:06:01Z</time>
      </trkpt>
      <trkpt lat="42.71567" lon="1.39867">
        <ele>1554</ele>
        <time>2022-01-30T15:06:15Z</time>
      </trkpt>
      <trkpt lat="42.71559" lon="1.39887">
        <ele>1540</ele>
        <time>2022-01-30T15:06:28Z</time>
      </trkpt>
      <trkpt lat="42.71569" lon="1.39902">
        <ele>1535</ele>
        <time>2022-01-30T15:06:33Z</time>
      </trkpt>
      <trkpt lat="42.71573" lon="1.39921">
        <ele>1519</ele>
        <time>2022-01-30T15:06:38Z</time>
      </trkpt>
      <trkpt lat="42.71572" lon="1.39943">
        <ele>1514</ele>
        <time>2022-01-30T15:06:43Z</time>
      </trkpt>
      <trkpt lat="42.71573" lon="1.39965">
        <ele>1502</ele>
        <time>2022-01-30T15:06:46Z</time>
      </trkpt>
      <trkpt lat="42.71573" lon="1.39988">
        <ele>1498</ele>
        <time>2022-01-30T15:06:50Z</time>
      </trkpt>
      <trkpt lat="42.71564" lon="1.40007">
        <ele>1493</ele>
        <time>2022-01-30T15:06:57Z</time>
      </trkpt>
      <trkpt lat="42.71549" lon="1.4001">
        <ele>1492</ele>
        <time>2022-01-30T15:07:05Z</time>
      </trkpt>
      <trkpt lat="42.71534" lon="1.40016">
        <ele>1489</ele>
        <time>2022-01-30T15:07:13Z</time>
      </trkpt>
      <trkpt lat="42.71528" lon="1.40036">
        <ele>1487</ele>
        <time>2022-01-30T15:07:24Z</time>
      </trkpt>
      <trkpt lat="42.71519" lon="1.40053">
        <ele>1484</ele>
        <time>2022-01-30T15:07:29Z</time>
      </trkpt>
      <trkpt lat="42.71523" lon="1.40073">
        <ele>1482</ele>
        <time>2022-01-30T15:07:38Z</time>
      </trkpt>
      <trkpt lat="42.71521" lon="1.40094">
        <ele>1478</ele>
        <time>2022-01-30T15:07:48Z</time>
      </trkpt>
      <trkpt lat="42.71515" lon="1.40114">
        <ele>1477</ele>
        <time>2022-01-30T15:07:59Z</time>
      </trkpt>
      <trkpt lat="42.71504" lon="1.40128">
        <ele>1474</ele>
        <time>2022-01-30T15:08:11Z</time>
      </trkpt>
      <trkpt lat="42.71495" lon="1.40143">
        <ele>1474</ele>
        <time>2022-01-30T15:08:18Z</time>
      </trkpt>
      <trkpt lat="42.71492" lon="1.40166">
        <ele>1471</ele>
        <time>2022-01-30T15:08:23Z</time>
      </trkpt>
      <trkpt lat="42.71478" lon="1.4018">
        <ele>1469</ele>
        <time>2022-01-30T15:08:30Z</time>
      </trkpt>
      <trkpt lat="42.71466" lon="1.40192">
        <ele>1468</ele>
        <time>2022-01-30T15:08:40Z</time>
      </trkpt>
      <trkpt lat="42.71458" lon="1.40208">
        <ele>1463</ele>
        <time>2022-01-30T15:11:25Z</time>
      </trkpt>
      <trkpt lat="42.71429" lon="1.40216">
        <ele>1462</ele>
        <time>2022-01-30T15:12:27Z</time>
      </trkpt>
      <trkpt lat="42.714" lon="1.40217">
        <ele>1459</ele>
        <time>2022-01-30T15:14:17Z</time>
      </trkpt>
      <trkpt lat="42.71373" lon="1.40229">
        <ele>1449</ele>
        <time>2022-01-30T15:15:25Z</time>
      </trkpt>
      <trkpt lat="42.71346" lon="1.40245">
        <ele>1448</ele>
        <time>2022-01-30T15:16:03Z</time>
      </trkpt>
      <trkpt lat="42.71317" lon="1.40251">
        <ele>1439</ele>
        <time>2022-01-30T15:16:41Z</time>
      </trkpt>
      <trkpt lat="42.71288" lon="1.40263">
        <ele>1429</ele>
        <time>2022-01-30T15:17:18Z</time>
      </trkpt>
      <trkpt lat="42.71261" lon="1.40275">
        <ele>1423</ele>
        <time>2022-01-30T15:17:42Z</time>
      </trkpt>
      <trkpt lat="42.71234" lon="1.40293">
        <ele>1416</ele>
        <time>2022-01-30T15:18:10Z</time>
      </trkpt>
      <trkpt lat="42.7121" lon="1.40315">
        <ele>1411</ele>
        <time>2022-01-30T15:18:42Z</time>
      </trkpt>
      <trkpt lat="42.71185" lon="1.40334">
        <ele>1410</ele>
        <time>2022-01-30T15:19:05Z</time>
      </trkpt>
      <trkpt lat="42.71163" lon="1.40361">
        <ele>1407</ele>
        <time>2022-01-30T15:19:38Z</time>
      </trkpt>
      <trkpt lat="42.71142" lon="1.40388">
        <ele>1403</ele>
        <time>2022-01-30T15:20:08Z</time>
      </trkpt>
      <trkpt lat="42.71133" lon="1.40425">
        <ele>1403</ele>
        <time>2022-01-30T15:21:01Z</time>
      </trkpt>
      <trkpt lat="42.71125" lon="1.40463">
        <ele>1405</ele>
        <time>2022-01-30T15:21:40Z</time>
      </trkpt>
      <trkpt lat="42.71118" lon="1.40502">
        <ele>1407</ele>
        <time>2022-01-30T15:22:14Z</time>
      </trkpt>
      <trkpt lat="42.71117" lon="1.40542">
        <ele>1411</ele>
        <time>2022-01-30T15:22:49Z</time>
      </trkpt>
      <trkpt lat="42.71119" lon="1.40581">
        <ele>1413</ele>
        <time>2022-01-30T15:23:18Z</time>
      </trkpt>
      <trkpt lat="42.7112" lon="1.40621">
        <ele>1418</ele>
        <time>2022-01-30T15:23:55Z</time>
      </trkpt>
      <trkpt lat="42.71123" lon="1.4066">
        <ele>1419</ele>
        <time>2022-01-30T15:24:26Z</time>
      </trkpt>
      <trkpt lat="42.71133" lon="1.40701">
        <ele>1421</ele>
        <time>2022-01-30T15:24:59Z</time>
      </trkpt>
      <trkpt lat="42.71137" lon="1.40722">
        <ele>1422</ele>
        <time>2022-01-30T15:25:15Z</time>
      </trkpt>
      <trkpt lat="42.71146" lon="1.40737">
        <ele>1423</ele>
        <time>2022-01-30T15:25:28Z</time>
      </trkpt>
      <trkpt lat="42.71155" lon="1.40753">
        <ele>1422</ele>
        <time>2022-01-30T15:25:45Z</time>
      </trkpt>
      <trkpt lat="42.71159" lon="1.40773">
        <ele>1423</ele>
        <time>2022-01-30T15:26:04Z</time>
      </trkpt>
      <trkpt lat="42.71168" lon="1.40789">
        <ele>1423</ele>
        <time>2022-01-30T15:26:20Z</time>
      </trkpt>
      <trkpt lat="42.71177" lon="1.40807">
        <ele>1424</ele>
        <time>2022-01-30T15:26:33Z</time>
      </trkpt>
      <trkpt lat="42.71186" lon="1.40822">
        <ele>1424</ele>
        <time>2022-01-30T15:26:47Z</time>
      </trkpt>
      <trkpt lat="42.71195" lon="1.40838">
        <ele>1424</ele>
        <time>2022-01-30T15:26:59Z</time>
      </trkpt>
      <trkpt lat="42.71203" lon="1.40855">
        <ele>1423</ele>
        <time>2022-01-30T15:27:12Z</time>
      </trkpt>
      <trkpt lat="42.71225" lon="1.40909">
        <ele>1423</ele>
        <time>2022-01-30T15:27:55Z</time>
      </trkpt>
      <trkpt lat="42.71229" lon="1.40928">
        <ele>1423</ele>
        <time>2022-01-30T15:28:08Z</time>
      </trkpt>
      <trkpt lat="42.71233" lon="1.40948">
        <ele>1422</ele>
        <time>2022-01-30T15:28:21Z</time>
      </trkpt>
      <trkpt lat="42.71237" lon="1.40968">
        <ele>1422</ele>
        <time>2022-01-30T15:28:36Z</time>
      </trkpt>
      <trkpt lat="42.71246" lon="1.40984">
        <ele>1421</ele>
        <time>2022-01-30T15:28:52Z</time>
      </trkpt>
      <trkpt lat="42.71253" lon="1.41001">
        <ele>1421</ele>
        <time>2022-01-30T15:29:07Z</time>
      </trkpt>
      <trkpt lat="42.71249" lon="1.41021">
        <ele>1421</ele>
        <time>2022-01-30T15:29:26Z</time>
      </trkpt>
      <trkpt lat="42.7124" lon="1.41037">
        <ele>1421</ele>
        <time>2022-01-30T15:29:44Z</time>
      </trkpt>
      <trkpt lat="42.71237" lon="1.41057">
        <ele>1422</ele>
        <time>2022-01-30T15:29:58Z</time>
      </trkpt>
      <trkpt lat="42.71236" lon="1.41078">
        <ele>1423</ele>
        <time>2022-01-30T15:30:15Z</time>
      </trkpt>
      <trkpt lat="42.71239" lon="1.41138">
        <ele>1422</ele>
        <time>2022-01-30T15:30:51Z</time>
      </trkpt>
      <trkpt lat="42.71243" lon="1.41157">
        <ele>1422</ele>
        <time>2022-01-30T15:31:07Z</time>
      </trkpt>
      <trkpt lat="42.71255" lon="1.41169">
        <ele>1422</ele>
        <time>2022-01-30T15:31:19Z</time>
      </trkpt>
      <trkpt lat="42.71263" lon="1.41186">
        <ele>1422</ele>
        <time>2022-01-30T15:31:43Z</time>
      </trkpt>
      <trkpt lat="42.71249" lon="1.41192">
        <ele>1423</ele>
        <time>2022-01-30T15:32:04Z</time>
      </trkpt>
      <trkpt lat="42.71236" lon="1.41203">
        <ele>1426</ele>
        <time>2022-01-30T15:32:18Z</time>
      </trkpt>
      <trkpt lat="42.71226" lon="1.41217">
        <ele>1427</ele>
        <time>2022-01-30T15:32:30Z</time>
      </trkpt>
      <trkpt lat="42.71203" lon="1.41242">
        <ele>1428</ele>
        <time>2022-01-30T15:32:53Z</time>
      </trkpt>
      <trkpt lat="42.71186" lon="1.41276">
        <ele>1428</ele>
        <time>2022-01-30T15:33:14Z</time>
      </trkpt>
      <trkpt lat="42.71179" lon="1.41315">
        <ele>1425</ele>
        <time>2022-01-30T15:33:34Z</time>
      </trkpt>
      <trkpt lat="42.71174" lon="1.41335">
        <ele>1418</ele>
        <time>2022-01-30T15:33:49Z</time>
      </trkpt>
      <trkpt lat="42.71173" lon="1.41354">
        <ele>1415</ele>
        <time>2022-01-30T15:34:08Z</time>
      </trkpt>
      <trkpt lat="42.71168" lon="1.41394">
        <ele>1409</ele>
        <time>2022-01-30T15:34:39Z</time>
      </trkpt>
      <trkpt lat="42.71167" lon="1.41414">
        <ele>1407</ele>
        <time>2022-01-30T15:34:51Z</time>
      </trkpt>
      <trkpt lat="42.71154" lon="1.41453">
        <ele>1407</ele>
        <time>2022-01-30T15:35:19Z</time>
      </trkpt>
      <trkpt lat="42.71148" lon="1.41473">
        <ele>1407</ele>
        <time>2022-01-30T15:35:30Z</time>
      </trkpt>
      <trkpt lat="42.71143" lon="1.41491">
        <ele>1405</ele>
        <time>2022-01-30T15:35:42Z</time>
      </trkpt>
      <trkpt lat="42.71148" lon="1.41511">
        <ele>1404</ele>
        <time>2022-01-30T15:35:56Z</time>
      </trkpt>
      <trkpt lat="42.71145" lon="1.41531">
        <ele>1402</ele>
        <time>2022-01-30T15:36:10Z</time>
      </trkpt>
      <trkpt lat="42.71147" lon="1.41571">
        <ele>1401</ele>
        <time>2022-01-30T15:36:32Z</time>
      </trkpt>
      <trkpt lat="42.71149" lon="1.41591">
        <ele>1399</ele>
        <time>2022-01-30T15:36:51Z</time>
      </trkpt>
      <trkpt lat="42.71146" lon="1.4161">
        <ele>1396</ele>
        <time>2022-01-30T15:37:09Z</time>
      </trkpt>
      <trkpt lat="42.71146" lon="1.41631">
        <ele>1391</ele>
        <time>2022-01-30T15:39:48Z</time>
      </trkpt>
      <trkpt lat="42.71147" lon="1.41651">
        <ele>1384</ele>
        <time>2022-01-30T15:40:00Z</time>
      </trkpt>
      <trkpt lat="42.71147" lon="1.41671">
        <ele>1382</ele>
        <time>2022-01-30T15:40:12Z</time>
      </trkpt>
      <trkpt lat="42.71144" lon="1.41692">
        <ele>1379</ele>
        <time>2022-01-30T15:40:25Z</time>
      </trkpt>
      <trkpt lat="42.71141" lon="1.41711">
        <ele>1378</ele>
        <time>2022-01-30T15:40:39Z</time>
      </trkpt>
      <trkpt lat="42.71132" lon="1.41728">
        <ele>1375</ele>
        <time>2022-01-30T15:40:54Z</time>
      </trkpt>
      <trkpt lat="42.71126" lon="1.41746">
        <ele>1374</ele>
        <time>2022-01-30T15:41:05Z</time>
      </trkpt>
      <trkpt lat="42.71122" lon="1.41767">
        <ele>1370</ele>
        <time>2022-01-30T15:41:19Z</time>
      </trkpt>
      <trkpt lat="42.71118" lon="1.41785">
        <ele>1369</ele>
        <time>2022-01-30T15:41:33Z</time>
      </trkpt>
      <trkpt lat="42.71107" lon="1.41823">
        <ele>1362</ele>
        <time>2022-01-30T15:42:02Z</time>
      </trkpt>
      <trkpt lat="42.71099" lon="1.41839">
        <ele>1357</ele>
        <time>2022-01-30T15:42:15Z</time>
      </trkpt>
      <trkpt lat="42.7109" lon="1.41857">
        <ele>1355</ele>
        <time>2022-01-30T15:42:27Z</time>
      </trkpt>
      <trkpt lat="42.71082" lon="1.41875">
        <ele>1349</ele>
        <time>2022-01-30T15:42:40Z</time>
      </trkpt>
      <trkpt lat="42.71074" lon="1.41891">
        <ele>1345</ele>
        <time>2022-01-30T15:42:56Z</time>
      </trkpt>
      <trkpt lat="42.7107" lon="1.41931">
        <ele>1335</ele>
        <time>2022-01-30T15:43:27Z</time>
      </trkpt>
      <trkpt lat="42.71061" lon="1.41969">
        <ele>1331</ele>
        <time>2022-01-30T15:43:52Z</time>
      </trkpt>
      <trkpt lat="42.7105" lon="1.42005">
        <ele>1319</ele>
        <time>2022-01-30T15:44:18Z</time>
      </trkpt>
      <trkpt lat="42.71043" lon="1.42043">
        <ele>1315</ele>
        <time>2022-01-30T15:44:48Z</time>
      </trkpt>
      <trkpt lat="42.71034" lon="1.42081">
        <ele>1304</ele>
        <time>2022-01-30T15:45:11Z</time>
      </trkpt>
      <trkpt lat="42.7103" lon="1.4212">
        <ele>1300</ele>
        <time>2022-01-30T15:45:38Z</time>
      </trkpt>
      <trkpt lat="42.71022" lon="1.42158">
        <ele>1288</ele>
        <time>2022-01-30T15:46:07Z</time>
      </trkpt>
      <trkpt lat="42.7102" lon="1.42197">
        <ele>1282</ele>
        <time>2022-01-30T15:46:39Z</time>
      </trkpt>
      <trkpt lat="42.71006" lon="1.42231">
        <ele>1266</ele>
        <time>2022-01-30T15:47:03Z</time>
      </trkpt>
      <trkpt lat="42.71002" lon="1.42272">
        <ele>1260</ele>
        <time>2022-01-30T15:47:33Z</time>
      </trkpt>
      <trkpt lat="42.71014" lon="1.42308">
        <ele>1244</ele>
        <time>2022-01-30T15:48:02Z</time>
      </trkpt>
      <trkpt lat="42.71034" lon="1.42338">
        <ele>1240</ele>
        <time>2022-01-30T15:48:26Z</time>
      </trkpt>
      <trkpt lat="42.71039" lon="1.42377">
        <ele>1227</ele>
        <time>2022-01-30T15:48:48Z</time>
      </trkpt>
      <trkpt lat="42.7105" lon="1.42414">
        <ele>1223</ele>
        <time>2022-01-30T15:49:21Z</time>
      </trkpt>
      <trkpt lat="42.71065" lon="1.42447">
        <ele>1216</ele>
        <time>2022-01-30T15:49:43Z</time>
      </trkpt>
      <trkpt lat="42.71045" lon="1.42476">
        <ele>1214</ele>
        <time>2022-01-30T15:50:16Z</time>
      </trkpt>
    </trkseg>
  </trk>
</gpx>